<?xml version="1.0" encoding="UTF-8" standalone="no" ?>
<gpx xmlns="http://www.topografix.com/GPX/1/1" xmlns:xsi="http://www.w3.org/2001/XMLSchema-instance" xsi:schemaLocation="http://www.topografix.com/GPX/1/1 http://www.topografix.com/GPX/1/1/gpx.xsd" version="1.1" creator="VisuGPX - https://www.visugpx.com">
  <metadata>
    <name>Autour de l\'Ecluse 16</name>
    <desc><![CDATA[Nous partons de la base de loisirs de Harschkirchen pour atteindre en milieu de parcours le restaurant de même nom en passant par Altwiller et le château de Bonne Fontaine. Au retour nous empruntons le chemin de halage du canal des houillères et à travers bois nous rejoignons notre point de départ]]></desc>
  </metadata>
  <trk>
    <name><![CDATA[2011-09-15 398443]]></name>
    <trkseg>
      <trkpt lat="48.94065" lon="7.02827">
        <ele>-6.11</ele>
        <time>2011-09-15T07:18:12Z</time>
      </trkpt>
      <trkpt lat="48.94058" lon="7.02835">
        <ele>-6.59</ele>
        <time>2011-09-15T07:18:22Z</time>
      </trkpt>
      <trkpt lat="48.9404" lon="7.0285">
        <ele>-6.11</ele>
        <time>2011-09-15T07:18:40Z</time>
      </trkpt>
      <trkpt lat="48.94028" lon="7.02865">
        <ele>-5.63</ele>
        <time>2011-09-15T07:18:54Z</time>
      </trkpt>
      <trkpt lat="48.94023" lon="7.02871">
        <ele>-5.63</ele>
        <time>2011-09-15T07:18:57Z</time>
      </trkpt>
      <trkpt lat="48.94002" lon="7.0289">
        <ele>-2.75</ele>
        <time>2011-09-15T07:19:14Z</time>
      </trkpt>
      <trkpt lat="48.93993" lon="7.02898">
        <ele>-1.3</ele>
        <time>2011-09-15T07:19:22Z</time>
      </trkpt>
      <trkpt lat="48.93979" lon="7.02909">
        <ele>1.58</ele>
        <time>2011-09-15T07:19:41Z</time>
      </trkpt>
      <trkpt lat="48.93958" lon="7.02917">
        <ele>3.5</ele>
        <time>2011-09-15T07:19:58Z</time>
      </trkpt>
      <trkpt lat="48.93949" lon="7.02921">
        <ele>4.46</ele>
        <time>2011-09-15T07:20:06Z</time>
      </trkpt>
      <trkpt lat="48.93917" lon="7.02943">
        <ele>7.35</ele>
        <time>2011-09-15T07:20:33Z</time>
      </trkpt>
      <trkpt lat="48.93896" lon="7.02958">
        <ele>10.23</ele>
        <time>2011-09-15T07:20:51Z</time>
      </trkpt>
      <trkpt lat="48.93888" lon="7.02967">
        <ele>11.19</ele>
        <time>2011-09-15T07:20:59Z</time>
      </trkpt>
      <trkpt lat="48.93885" lon="7.02967">
        <ele>11.19</ele>
        <time>2011-09-15T07:21:01Z</time>
      </trkpt>
      <trkpt lat="48.93854" lon="7.02979">
        <ele>14.56</ele>
        <time>2011-09-15T07:21:24Z</time>
      </trkpt>
      <trkpt lat="48.93842" lon="7.02983">
        <ele>16.48</ele>
        <time>2011-09-15T07:21:38Z</time>
      </trkpt>
      <trkpt lat="48.93818" lon="7.02989">
        <ele>19.84</ele>
        <time>2011-09-15T07:21:58Z</time>
      </trkpt>
      <trkpt lat="48.93794" lon="7.02993">
        <ele>21.77</ele>
        <time>2011-09-15T07:22:19Z</time>
      </trkpt>
      <trkpt lat="48.93791" lon="7.02993">
        <ele>22.25</ele>
        <time>2011-09-15T07:22:22Z</time>
      </trkpt>
      <trkpt lat="48.93786" lon="7.02991">
        <ele>23.21</ele>
        <time>2011-09-15T07:22:27Z</time>
      </trkpt>
      <trkpt lat="48.93782" lon="7.02992">
        <ele>23.69</ele>
        <time>2011-09-15T07:22:32Z</time>
      </trkpt>
      <trkpt lat="48.93778" lon="7.02994">
        <ele>24.65</ele>
        <time>2011-09-15T07:22:36Z</time>
      </trkpt>
      <trkpt lat="48.93774" lon="7.02998">
        <ele>24.65</ele>
        <time>2011-09-15T07:22:39Z</time>
      </trkpt>
      <trkpt lat="48.9377" lon="7.02998">
        <ele>24.65</ele>
        <time>2011-09-15T07:22:41Z</time>
      </trkpt>
      <trkpt lat="48.93742" lon="7.03006">
        <ele>27.05</ele>
        <time>2011-09-15T07:23:03Z</time>
      </trkpt>
      <trkpt lat="48.9372" lon="7.03015">
        <ele>28.98</ele>
        <time>2011-09-15T07:23:21Z</time>
      </trkpt>
      <trkpt lat="48.93717" lon="7.03018">
        <ele>29.46</ele>
        <time>2011-09-15T07:23:26Z</time>
      </trkpt>
      <trkpt lat="48.93693" lon="7.03031">
        <ele>31.38</ele>
        <time>2011-09-15T07:23:46Z</time>
      </trkpt>
      <trkpt lat="48.9367" lon="7.0305">
        <ele>33.3</ele>
        <time>2011-09-15T07:24:06Z</time>
      </trkpt>
      <trkpt lat="48.93662" lon="7.0307">
        <ele>35.23</ele>
        <time>2011-09-15T07:24:21Z</time>
      </trkpt>
      <trkpt lat="48.93641" lon="7.0307">
        <ele>36.19</ele>
        <time>2011-09-15T07:24:31Z</time>
      </trkpt>
      <trkpt lat="48.93637" lon="7.03072">
        <ele>37.15</ele>
        <time>2011-09-15T07:24:34Z</time>
      </trkpt>
      <trkpt lat="48.936" lon="7.03093">
        <ele>40.03</ele>
        <time>2011-09-15T07:25:04Z</time>
      </trkpt>
      <trkpt lat="48.93579" lon="7.03111">
        <ele>41.95</ele>
        <time>2011-09-15T07:25:26Z</time>
      </trkpt>
      <trkpt lat="48.93556" lon="7.0313">
        <ele>43.4</ele>
        <time>2011-09-15T07:25:48Z</time>
      </trkpt>
      <trkpt lat="48.93545" lon="7.03139">
        <ele>44.36</ele>
        <time>2011-09-15T07:25:58Z</time>
      </trkpt>
      <trkpt lat="48.9354" lon="7.03143">
        <ele>46.76</ele>
        <time>2011-09-15T07:26:08Z</time>
      </trkpt>
      <trkpt lat="48.93535" lon="7.03151">
        <ele>46.28</ele>
        <time>2011-09-15T07:26:13Z</time>
      </trkpt>
      <trkpt lat="48.93511" lon="7.03177">
        <ele>48.2</ele>
        <time>2011-09-15T07:26:36Z</time>
      </trkpt>
      <trkpt lat="48.93484" lon="7.03212">
        <ele>51.09</ele>
        <time>2011-09-15T07:27:03Z</time>
      </trkpt>
      <trkpt lat="48.93453" lon="7.03252">
        <ele>53.49</ele>
        <time>2011-09-15T07:27:33Z</time>
      </trkpt>
      <trkpt lat="48.9343" lon="7.03283">
        <ele>55.89</ele>
        <time>2011-09-15T07:27:56Z</time>
      </trkpt>
      <trkpt lat="48.93401" lon="7.0332">
        <ele>58.3</ele>
        <time>2011-09-15T07:28:23Z</time>
      </trkpt>
      <trkpt lat="48.9337" lon="7.03351">
        <ele>60.7</ele>
        <time>2011-09-15T07:28:48Z</time>
      </trkpt>
      <trkpt lat="48.93357" lon="7.0336">
        <ele>61.66</ele>
        <time>2011-09-15T07:28:57Z</time>
      </trkpt>
      <trkpt lat="48.93315" lon="7.03386">
        <ele>64.07</ele>
        <time>2011-09-15T07:29:29Z</time>
      </trkpt>
      <trkpt lat="48.93285" lon="7.03396">
        <ele>66.47</ele>
        <time>2011-09-15T07:29:52Z</time>
      </trkpt>
      <trkpt lat="48.93253" lon="7.03406">
        <ele>68.39</ele>
        <time>2011-09-15T07:30:15Z</time>
      </trkpt>
      <trkpt lat="48.93223" lon="7.03407">
        <ele>69.83</ele>
        <time>2011-09-15T07:30:37Z</time>
      </trkpt>
      <trkpt lat="48.932" lon="7.03404">
        <ele>71.27</ele>
        <time>2011-09-15T07:30:55Z</time>
      </trkpt>
      <trkpt lat="48.9318" lon="7.03395">
        <ele>73.2</ele>
        <time>2011-09-15T07:31:12Z</time>
      </trkpt>
      <trkpt lat="48.93165" lon="7.03385">
        <ele>74.64</ele>
        <time>2011-09-15T07:31:29Z</time>
      </trkpt>
      <trkpt lat="48.9314" lon="7.03376">
        <ele>76.08</ele>
        <time>2011-09-15T07:31:49Z</time>
      </trkpt>
      <trkpt lat="48.93121" lon="7.0337">
        <ele>76.56</ele>
        <time>2011-09-15T07:32:03Z</time>
      </trkpt>
      <trkpt lat="48.93119" lon="7.03373">
        <ele>78</ele>
        <time>2011-09-15T07:32:08Z</time>
      </trkpt>
      <trkpt lat="48.93137" lon="7.03386">
        <ele>81.37</ele>
        <time>2011-09-15T07:32:25Z</time>
      </trkpt>
      <trkpt lat="48.93145" lon="7.0339">
        <ele>82.81</ele>
        <time>2011-09-15T07:32:33Z</time>
      </trkpt>
      <trkpt lat="48.93153" lon="7.03396">
        <ele>84.25</ele>
        <time>2011-09-15T07:32:40Z</time>
      </trkpt>
      <trkpt lat="48.93157" lon="7.03394">
        <ele>84.73</ele>
        <time>2011-09-15T07:32:42Z</time>
      </trkpt>
      <trkpt lat="48.93162" lon="7.03355">
        <ele>86.18</ele>
        <time>2011-09-15T07:33:03Z</time>
      </trkpt>
      <trkpt lat="48.93162" lon="7.03312">
        <ele>86.18</ele>
        <time>2011-09-15T07:33:26Z</time>
      </trkpt>
      <trkpt lat="48.93154" lon="7.03275">
        <ele>87.14</ele>
        <time>2011-09-15T07:33:45Z</time>
      </trkpt>
      <trkpt lat="48.9315" lon="7.03234">
        <ele>90.02</ele>
        <time>2011-09-15T07:34:06Z</time>
      </trkpt>
      <trkpt lat="48.93144" lon="7.03197">
        <ele>91.94</ele>
        <time>2011-09-15T07:34:25Z</time>
      </trkpt>
      <trkpt lat="48.93124" lon="7.0317">
        <ele>95.79</ele>
        <time>2011-09-15T07:34:45Z</time>
      </trkpt>
      <trkpt lat="48.93105" lon="7.03146">
        <ele>98.19</ele>
        <time>2011-09-15T07:35:04Z</time>
      </trkpt>
      <trkpt lat="48.93079" lon="7.03114">
        <ele>100.6</ele>
        <time>2011-09-15T07:35:27Z</time>
      </trkpt>
      <trkpt lat="48.93067" lon="7.03095">
        <ele>103.48</ele>
        <time>2011-09-15T07:35:41Z</time>
      </trkpt>
      <trkpt lat="48.9305" lon="7.03065">
        <ele>106.36</ele>
        <time>2011-09-15T07:36:01Z</time>
      </trkpt>
      <trkpt lat="48.93023" lon="7.03009">
        <ele>109.25</ele>
        <time>2011-09-15T07:36:36Z</time>
      </trkpt>
      <trkpt lat="48.92981" lon="7.02936">
        <ele>111.65</ele>
        <time>2011-09-15T07:37:25Z</time>
      </trkpt>
      <trkpt lat="48.92963" lon="7.02897">
        <ele>113.09</ele>
        <time>2011-09-15T07:37:47Z</time>
      </trkpt>
      <trkpt lat="48.92951" lon="7.02867">
        <ele>114.05</ele>
        <time>2011-09-15T07:38:06Z</time>
      </trkpt>
      <trkpt lat="48.92943" lon="7.0283">
        <ele>113.57</ele>
        <time>2011-09-15T07:38:28Z</time>
      </trkpt>
      <trkpt lat="48.92934" lon="7.02776">
        <ele>115.01</ele>
        <time>2011-09-15T07:38:57Z</time>
      </trkpt>
      <trkpt lat="48.92925" lon="7.02708">
        <ele>115.01</ele>
        <time>2011-09-15T07:39:32Z</time>
      </trkpt>
      <trkpt lat="48.92912" lon="7.02635">
        <ele>115.01</ele>
        <time>2011-09-15T07:40:09Z</time>
      </trkpt>
      <trkpt lat="48.92893" lon="7.02555">
        <ele>114.05</ele>
        <time>2011-09-15T07:40:50Z</time>
      </trkpt>
      <trkpt lat="48.92891" lon="7.0249">
        <ele>115.01</ele>
        <time>2011-09-15T07:41:23Z</time>
      </trkpt>
      <trkpt lat="48.92904" lon="7.02437">
        <ele>115.5</ele>
        <time>2011-09-15T07:41:51Z</time>
      </trkpt>
      <trkpt lat="48.92929" lon="7.02412">
        <ele>117.42</ele>
        <time>2011-09-15T07:42:13Z</time>
      </trkpt>
      <trkpt lat="48.92937" lon="7.02369">
        <ele>120.3</ele>
        <time>2011-09-15T07:42:36Z</time>
      </trkpt>
      <trkpt lat="48.92938" lon="7.02311">
        <ele>123.67</ele>
        <time>2011-09-15T07:43:04Z</time>
      </trkpt>
      <trkpt lat="48.92941" lon="7.02254">
        <ele>126.55</ele>
        <time>2011-09-15T07:43:38Z</time>
      </trkpt>
      <trkpt lat="48.92942" lon="7.02234">
        <ele>127.51</ele>
        <time>2011-09-15T07:44:00Z</time>
      </trkpt>
      <trkpt lat="48.92942" lon="7.02234">
        <ele>128.95</ele>
        <time>2011-09-15T07:44:07Z</time>
      </trkpt>
      <trkpt lat="48.92942" lon="7.02212">
        <ele>130.88</ele>
        <time>2011-09-15T07:44:45Z</time>
      </trkpt>
      <trkpt lat="48.92943" lon="7.02156">
        <ele>131.84</ele>
        <time>2011-09-15T07:45:19Z</time>
      </trkpt>
      <trkpt lat="48.92945" lon="7.02089">
        <ele>132.8</ele>
        <time>2011-09-15T07:45:53Z</time>
      </trkpt>
      <trkpt lat="48.92946" lon="7.02019">
        <ele>134.24</ele>
        <time>2011-09-15T07:46:28Z</time>
      </trkpt>
      <trkpt lat="48.9294" lon="7.01931">
        <ele>136.64</ele>
        <time>2011-09-15T07:47:12Z</time>
      </trkpt>
      <trkpt lat="48.92938" lon="7.01897">
        <ele>138.09</ele>
        <time>2011-09-15T07:47:28Z</time>
      </trkpt>
      <trkpt lat="48.92934" lon="7.01876">
        <ele>138.57</ele>
        <time>2011-09-15T07:47:46Z</time>
      </trkpt>
      <trkpt lat="48.92934" lon="7.01871">
        <ele>140.49</ele>
        <time>2011-09-15T07:48:09Z</time>
      </trkpt>
      <trkpt lat="48.92929" lon="7.0182">
        <ele>142.41</ele>
        <time>2011-09-15T07:48:36Z</time>
      </trkpt>
      <trkpt lat="48.92922" lon="7.01768">
        <ele>145.78</ele>
        <time>2011-09-15T07:49:05Z</time>
      </trkpt>
      <trkpt lat="48.92918" lon="7.01728">
        <ele>149.14</ele>
        <time>2011-09-15T07:49:27Z</time>
      </trkpt>
      <trkpt lat="48.92912" lon="7.01677">
        <ele>152.03</ele>
        <time>2011-09-15T07:49:57Z</time>
      </trkpt>
      <trkpt lat="48.929" lon="7.01629">
        <ele>152.51</ele>
        <time>2011-09-15T07:50:25Z</time>
      </trkpt>
      <trkpt lat="48.92887" lon="7.01574">
        <ele>152.51</ele>
        <time>2011-09-15T07:50:55Z</time>
      </trkpt>
      <trkpt lat="48.92878" lon="7.01553">
        <ele>153.47</ele>
        <time>2011-09-15T07:51:08Z</time>
      </trkpt>
      <trkpt lat="48.9284" lon="7.01544">
        <ele>152.51</ele>
        <time>2011-09-15T07:51:36Z</time>
      </trkpt>
      <trkpt lat="48.92795" lon="7.01548">
        <ele>151.06</ele>
        <time>2011-09-15T07:52:10Z</time>
      </trkpt>
      <trkpt lat="48.92749" lon="7.01548">
        <ele>151.54</ele>
        <time>2011-09-15T07:52:44Z</time>
      </trkpt>
      <trkpt lat="48.92716" lon="7.01544">
        <ele>151.06</ele>
        <time>2011-09-15T07:53:10Z</time>
      </trkpt>
      <trkpt lat="48.92704" lon="7.0154">
        <ele>151.54</ele>
        <time>2011-09-15T07:53:21Z</time>
      </trkpt>
      <trkpt lat="48.927" lon="7.01539">
        <ele>151.54</ele>
        <time>2011-09-15T07:53:26Z</time>
      </trkpt>
      <trkpt lat="48.92689" lon="7.01542">
        <ele>152.03</ele>
        <time>2011-09-15T07:53:33Z</time>
      </trkpt>
      <trkpt lat="48.92682" lon="7.0154">
        <ele>151.54</ele>
        <time>2011-09-15T07:53:39Z</time>
      </trkpt>
      <trkpt lat="48.92662" lon="7.01539">
        <ele>152.51</ele>
        <time>2011-09-15T07:53:54Z</time>
      </trkpt>
      <trkpt lat="48.9264" lon="7.0153">
        <ele>152.51</ele>
        <time>2011-09-15T07:54:10Z</time>
      </trkpt>
      <trkpt lat="48.92637" lon="7.01526">
        <ele>152.51</ele>
        <time>2011-09-15T07:54:13Z</time>
      </trkpt>
      <trkpt lat="48.92621" lon="7.01516">
        <ele>153.47</ele>
        <time>2011-09-15T07:54:27Z</time>
      </trkpt>
      <trkpt lat="48.92608" lon="7.0151">
        <ele>152.99</ele>
        <time>2011-09-15T07:54:39Z</time>
      </trkpt>
      <trkpt lat="48.92589" lon="7.01504">
        <ele>154.43</ele>
        <time>2011-09-15T07:54:56Z</time>
      </trkpt>
      <trkpt lat="48.92548" lon="7.01489">
        <ele>155.87</ele>
        <time>2011-09-15T07:55:24Z</time>
      </trkpt>
      <trkpt lat="48.92537" lon="7.0147">
        <ele>155.39</ele>
        <time>2011-09-15T07:55:38Z</time>
      </trkpt>
      <trkpt lat="48.92538" lon="7.01434">
        <ele>156.83</ele>
        <time>2011-09-15T07:55:51Z</time>
      </trkpt>
      <trkpt lat="48.92537" lon="7.01412">
        <ele>156.83</ele>
        <time>2011-09-15T07:56:04Z</time>
      </trkpt>
      <trkpt lat="48.92535" lon="7.01404">
        <ele>157.79</ele>
        <time>2011-09-15T07:56:09Z</time>
      </trkpt>
      <trkpt lat="48.92527" lon="7.01386">
        <ele>157.79</ele>
        <time>2011-09-15T07:56:21Z</time>
      </trkpt>
      <trkpt lat="48.92522" lon="7.0138">
        <ele>158.75</ele>
        <time>2011-09-15T07:56:25Z</time>
      </trkpt>
      <trkpt lat="48.92521" lon="7.01379">
        <ele>159.24</ele>
        <time>2011-09-15T07:56:27Z</time>
      </trkpt>
      <trkpt lat="48.92517" lon="7.01378">
        <ele>158.75</ele>
        <time>2011-09-15T07:56:30Z</time>
      </trkpt>
      <trkpt lat="48.92515" lon="7.01377">
        <ele>158.75</ele>
        <time>2011-09-15T07:56:32Z</time>
      </trkpt>
      <trkpt lat="48.92504" lon="7.01375">
        <ele>160.68</ele>
        <time>2011-09-15T07:56:40Z</time>
      </trkpt>
      <trkpt lat="48.92488" lon="7.01357">
        <ele>161.64</ele>
        <time>2011-09-15T07:56:55Z</time>
      </trkpt>
      <trkpt lat="48.92469" lon="7.01336">
        <ele>164.04</ele>
        <time>2011-09-15T07:57:13Z</time>
      </trkpt>
      <trkpt lat="48.92456" lon="7.01322">
        <ele>165.96</ele>
        <time>2011-09-15T07:57:25Z</time>
      </trkpt>
      <trkpt lat="48.92454" lon="7.01321">
        <ele>164.52</ele>
        <time>2011-09-15T07:57:27Z</time>
      </trkpt>
      <trkpt lat="48.92437" lon="7.01304">
        <ele>167.41</ele>
        <time>2011-09-15T07:57:44Z</time>
      </trkpt>
      <trkpt lat="48.92429" lon="7.01292">
        <ele>167.41</ele>
        <time>2011-09-15T07:57:53Z</time>
      </trkpt>
      <trkpt lat="48.92427" lon="7.01289">
        <ele>168.37</ele>
        <time>2011-09-15T07:57:55Z</time>
      </trkpt>
      <trkpt lat="48.92407" lon="7.01273">
        <ele>169.81</ele>
        <time>2011-09-15T07:58:14Z</time>
      </trkpt>
      <trkpt lat="48.92389" lon="7.01254">
        <ele>172.21</ele>
        <time>2011-09-15T07:58:31Z</time>
      </trkpt>
      <trkpt lat="48.92375" lon="7.0124">
        <ele>172.21</ele>
        <time>2011-09-15T07:58:48Z</time>
      </trkpt>
      <trkpt lat="48.92355" lon="7.01219">
        <ele>175.1</ele>
        <time>2011-09-15T07:59:07Z</time>
      </trkpt>
      <trkpt lat="48.92352" lon="7.01213">
        <ele>174.62</ele>
        <time>2011-09-15T07:59:10Z</time>
      </trkpt>
      <trkpt lat="48.9235" lon="7.01207">
        <ele>175.1</ele>
        <time>2011-09-15T07:59:13Z</time>
      </trkpt>
      <trkpt lat="48.92338" lon="7.01198">
        <ele>176.54</ele>
        <time>2011-09-15T07:59:31Z</time>
      </trkpt>
      <trkpt lat="48.9233" lon="7.01193">
        <ele>177.98</ele>
        <time>2011-09-15T07:59:39Z</time>
      </trkpt>
      <trkpt lat="48.92315" lon="7.01179">
        <ele>178.94</ele>
        <time>2011-09-15T07:59:56Z</time>
      </trkpt>
      <trkpt lat="48.92298" lon="7.01164">
        <ele>179.9</ele>
        <time>2011-09-15T08:00:17Z</time>
      </trkpt>
      <trkpt lat="48.92293" lon="7.01161">
        <ele>180.38</ele>
        <time>2011-09-15T08:00:24Z</time>
      </trkpt>
      <trkpt lat="48.9229" lon="7.01161">
        <ele>181.83</ele>
        <time>2011-09-15T08:00:26Z</time>
      </trkpt>
      <trkpt lat="48.92274" lon="7.0113">
        <ele>183.75</ele>
        <time>2011-09-15T08:00:47Z</time>
      </trkpt>
      <trkpt lat="48.92276" lon="7.01124">
        <ele>185.19</ele>
        <time>2011-09-15T08:01:02Z</time>
      </trkpt>
      <trkpt lat="48.92269" lon="7.01122">
        <ele>186.15</ele>
        <time>2011-09-15T08:01:17Z</time>
      </trkpt>
      <trkpt lat="48.92271" lon="7.01123">
        <ele>187.11</ele>
        <time>2011-09-15T08:01:43Z</time>
      </trkpt>
      <trkpt lat="48.92269" lon="7.01119">
        <ele>187.59</ele>
        <time>2011-09-15T08:02:10Z</time>
      </trkpt>
      <trkpt lat="48.92255" lon="7.01109">
        <ele>188.56</ele>
        <time>2011-09-15T08:02:22Z</time>
      </trkpt>
      <trkpt lat="48.92243" lon="7.01103">
        <ele>189.52</ele>
        <time>2011-09-15T08:02:35Z</time>
      </trkpt>
      <trkpt lat="48.92236" lon="7.01096">
        <ele>189.04</ele>
        <time>2011-09-15T08:02:48Z</time>
      </trkpt>
      <trkpt lat="48.92236" lon="7.011">
        <ele>189.04</ele>
        <time>2011-09-15T08:03:01Z</time>
      </trkpt>
      <trkpt lat="48.92219" lon="7.01074">
        <ele>189.04</ele>
        <time>2011-09-15T08:03:25Z</time>
      </trkpt>
      <trkpt lat="48.92212" lon="7.01067">
        <ele>190.48</ele>
        <time>2011-09-15T08:03:49Z</time>
      </trkpt>
      <trkpt lat="48.92189" lon="7.01041">
        <ele>190</ele>
        <time>2011-09-15T08:04:13Z</time>
      </trkpt>
      <trkpt lat="48.92166" lon="7.01018">
        <ele>189.04</ele>
        <time>2011-09-15T08:04:36Z</time>
      </trkpt>
      <trkpt lat="48.92139" lon="7.00989">
        <ele>188.56</ele>
        <time>2011-09-15T08:05:03Z</time>
      </trkpt>
      <trkpt lat="48.92119" lon="7.00968">
        <ele>188.08</ele>
        <time>2011-09-15T08:05:27Z</time>
      </trkpt>
      <trkpt lat="48.92103" lon="7.00953">
        <ele>186.15</ele>
        <time>2011-09-15T08:05:45Z</time>
      </trkpt>
      <trkpt lat="48.92083" lon="7.00933">
        <ele>185.67</ele>
        <time>2011-09-15T08:06:04Z</time>
      </trkpt>
      <trkpt lat="48.92065" lon="7.00916">
        <ele>185.19</ele>
        <time>2011-09-15T08:06:21Z</time>
      </trkpt>
      <trkpt lat="48.92044" lon="7.00894">
        <ele>185.19</ele>
        <time>2011-09-15T08:06:42Z</time>
      </trkpt>
      <trkpt lat="48.92022" lon="7.00873">
        <ele>184.23</ele>
        <time>2011-09-15T08:07:03Z</time>
      </trkpt>
      <trkpt lat="48.92007" lon="7.00858">
        <ele>184.23</ele>
        <time>2011-09-15T08:07:17Z</time>
      </trkpt>
      <trkpt lat="48.9199" lon="7.0084">
        <ele>184.23</ele>
        <time>2011-09-15T08:07:35Z</time>
      </trkpt>
      <trkpt lat="48.91971" lon="7.00821">
        <ele>182.79</ele>
        <time>2011-09-15T08:07:55Z</time>
      </trkpt>
      <trkpt lat="48.91952" lon="7.00796">
        <ele>183.27</ele>
        <time>2011-09-15T08:08:14Z</time>
      </trkpt>
      <trkpt lat="48.91939" lon="7.00786">
        <ele>181.83</ele>
        <time>2011-09-15T08:08:25Z</time>
      </trkpt>
      <trkpt lat="48.91926" lon="7.00776">
        <ele>183.27</ele>
        <time>2011-09-15T08:08:37Z</time>
      </trkpt>
      <trkpt lat="48.91921" lon="7.00766">
        <ele>182.31</ele>
        <time>2011-09-15T08:08:44Z</time>
      </trkpt>
      <trkpt lat="48.91918" lon="7.00762">
        <ele>182.31</ele>
        <time>2011-09-15T08:08:47Z</time>
      </trkpt>
      <trkpt lat="48.91916" lon="7.0075">
        <ele>182.31</ele>
        <time>2011-09-15T08:08:54Z</time>
      </trkpt>
      <trkpt lat="48.91916" lon="7.00743">
        <ele>183.75</ele>
        <time>2011-09-15T08:09:15Z</time>
      </trkpt>
      <trkpt lat="48.91928" lon="7.00735">
        <ele>184.23</ele>
        <time>2011-09-15T08:09:55Z</time>
      </trkpt>
      <trkpt lat="48.91938" lon="7.00736">
        <ele>184.71</ele>
        <time>2011-09-15T08:10:08Z</time>
      </trkpt>
      <trkpt lat="48.91954" lon="7.00729">
        <ele>186.63</ele>
        <time>2011-09-15T08:10:25Z</time>
      </trkpt>
      <trkpt lat="48.91977" lon="7.00719">
        <ele>188.56</ele>
        <time>2011-09-15T08:10:42Z</time>
      </trkpt>
      <trkpt lat="48.91992" lon="7.00714">
        <ele>190.96</ele>
        <time>2011-09-15T08:11:00Z</time>
      </trkpt>
      <trkpt lat="48.92002" lon="7.0071">
        <ele>192.4</ele>
        <time>2011-09-15T08:11:16Z</time>
      </trkpt>
      <trkpt lat="48.92013" lon="7.00706">
        <ele>193.36</ele>
        <time>2011-09-15T08:11:31Z</time>
      </trkpt>
      <trkpt lat="48.92019" lon="7.00704">
        <ele>194.32</ele>
        <time>2011-09-15T08:11:35Z</time>
      </trkpt>
      <trkpt lat="48.92025" lon="7.00697">
        <ele>195.28</ele>
        <time>2011-09-15T08:11:43Z</time>
      </trkpt>
      <trkpt lat="48.92037" lon="7.00691">
        <ele>196.73</ele>
        <time>2011-09-15T08:12:04Z</time>
      </trkpt>
      <trkpt lat="48.92052" lon="7.00686">
        <ele>198.65</ele>
        <time>2011-09-15T08:12:20Z</time>
      </trkpt>
      <trkpt lat="48.92072" lon="7.00681">
        <ele>201.53</ele>
        <time>2011-09-15T08:12:40Z</time>
      </trkpt>
      <trkpt lat="48.92091" lon="7.00672">
        <ele>203.46</ele>
        <time>2011-09-15T08:12:56Z</time>
      </trkpt>
      <trkpt lat="48.92103" lon="7.00669">
        <ele>204.9</ele>
        <time>2011-09-15T08:13:11Z</time>
      </trkpt>
      <trkpt lat="48.92119" lon="7.0066">
        <ele>207.3</ele>
        <time>2011-09-15T08:13:28Z</time>
      </trkpt>
      <trkpt lat="48.92134" lon="7.00656">
        <ele>209.22</ele>
        <time>2011-09-15T08:13:43Z</time>
      </trkpt>
      <trkpt lat="48.9215" lon="7.00652">
        <ele>209.7</ele>
        <time>2011-09-15T08:13:57Z</time>
      </trkpt>
      <trkpt lat="48.92154" lon="7.0065">
        <ele>209.7</ele>
        <time>2011-09-15T08:14:01Z</time>
      </trkpt>
      <trkpt lat="48.92172" lon="7.00639">
        <ele>212.11</ele>
        <time>2011-09-15T08:14:19Z</time>
      </trkpt>
      <trkpt lat="48.92185" lon="7.00629">
        <ele>212.59</ele>
        <time>2011-09-15T08:14:29Z</time>
      </trkpt>
      <trkpt lat="48.92191" lon="7.0063">
        <ele>212.59</ele>
        <time>2011-09-15T08:14:33Z</time>
      </trkpt>
      <trkpt lat="48.92198" lon="7.00628">
        <ele>212.59</ele>
        <time>2011-09-15T08:14:40Z</time>
      </trkpt>
      <trkpt lat="48.92201" lon="7.00628">
        <ele>213.55</ele>
        <time>2011-09-15T08:14:43Z</time>
      </trkpt>
      <trkpt lat="48.92206" lon="7.00633">
        <ele>213.55</ele>
        <time>2011-09-15T08:14:48Z</time>
      </trkpt>
      <trkpt lat="48.92212" lon="7.00643">
        <ele>213.55</ele>
        <time>2011-09-15T08:14:58Z</time>
      </trkpt>
      <trkpt lat="48.92213" lon="7.00646">
        <ele>213.55</ele>
        <time>2011-09-15T08:15:00Z</time>
      </trkpt>
      <trkpt lat="48.92218" lon="7.00644">
        <ele>213.07</ele>
        <time>2011-09-15T08:15:07Z</time>
      </trkpt>
      <trkpt lat="48.92213" lon="7.00648">
        <ele>221.72</ele>
        <time>2011-09-15T08:23:00Z</time>
      </trkpt>
      <trkpt lat="48.92218" lon="7.00644">
        <ele>221.72</ele>
        <time>2011-09-15T08:23:05Z</time>
      </trkpt>
      <trkpt lat="48.92222" lon="7.00637">
        <ele>222.2</ele>
        <time>2011-09-15T08:23:19Z</time>
      </trkpt>
      <trkpt lat="48.92237" lon="7.00632">
        <ele>221.72</ele>
        <time>2011-09-15T08:23:33Z</time>
      </trkpt>
      <trkpt lat="48.92243" lon="7.00624">
        <ele>221.24</ele>
        <time>2011-09-15T08:23:39Z</time>
      </trkpt>
      <trkpt lat="48.92264" lon="7.00618">
        <ele>220.76</ele>
        <time>2011-09-15T08:23:56Z</time>
      </trkpt>
      <trkpt lat="48.92278" lon="7.00612">
        <ele>220.28</ele>
        <time>2011-09-15T08:24:06Z</time>
      </trkpt>
      <trkpt lat="48.92317" lon="7.00593">
        <ele>218.36</ele>
        <time>2011-09-15T08:24:38Z</time>
      </trkpt>
      <trkpt lat="48.92362" lon="7.00571">
        <ele>215.95</ele>
        <time>2011-09-15T08:25:12Z</time>
      </trkpt>
      <trkpt lat="48.9237" lon="7.00568">
        <ele>214.51</ele>
        <time>2011-09-15T08:25:17Z</time>
      </trkpt>
      <trkpt lat="48.92384" lon="7.00562">
        <ele>213.07</ele>
        <time>2011-09-15T08:25:28Z</time>
      </trkpt>
      <trkpt lat="48.92395" lon="7.00557">
        <ele>212.59</ele>
        <time>2011-09-15T08:25:37Z</time>
      </trkpt>
      <trkpt lat="48.92403" lon="7.00556">
        <ele>212.11</ele>
        <time>2011-09-15T08:25:44Z</time>
      </trkpt>
      <trkpt lat="48.92426" lon="7.00552">
        <ele>211.15</ele>
        <time>2011-09-15T08:26:03Z</time>
      </trkpt>
      <trkpt lat="48.92431" lon="7.00546">
        <ele>211.63</ele>
        <time>2011-09-15T08:26:12Z</time>
      </trkpt>
      <trkpt lat="48.92432" lon="7.0054">
        <ele>211.63</ele>
        <time>2011-09-15T08:26:15Z</time>
      </trkpt>
      <trkpt lat="48.92428" lon="7.00527">
        <ele>212.11</ele>
        <time>2011-09-15T08:26:23Z</time>
      </trkpt>
      <trkpt lat="48.92425" lon="7.0052">
        <ele>212.59</ele>
        <time>2011-09-15T08:26:27Z</time>
      </trkpt>
      <trkpt lat="48.92421" lon="7.00506">
        <ele>213.55</ele>
        <time>2011-09-15T08:26:36Z</time>
      </trkpt>
      <trkpt lat="48.92411" lon="7.00482">
        <ele>214.03</ele>
        <time>2011-09-15T08:26:51Z</time>
      </trkpt>
      <trkpt lat="48.92405" lon="7.00466">
        <ele>214.99</ele>
        <time>2011-09-15T08:27:01Z</time>
      </trkpt>
      <trkpt lat="48.92404" lon="7.00432">
        <ele>217.4</ele>
        <time>2011-09-15T08:27:18Z</time>
      </trkpt>
      <trkpt lat="48.92402" lon="7.00427">
        <ele>218.36</ele>
        <time>2011-09-15T08:27:22Z</time>
      </trkpt>
      <trkpt lat="48.92395" lon="7.00406">
        <ele>220.28</ele>
        <time>2011-09-15T08:27:36Z</time>
      </trkpt>
      <trkpt lat="48.92388" lon="7.00384">
        <ele>221.72</ele>
        <time>2011-09-15T08:27:51Z</time>
      </trkpt>
      <trkpt lat="48.92385" lon="7.0035">
        <ele>224.12</ele>
        <time>2011-09-15T08:28:11Z</time>
      </trkpt>
      <trkpt lat="48.92384" lon="7.00332">
        <ele>225.09</ele>
        <time>2011-09-15T08:28:24Z</time>
      </trkpt>
      <trkpt lat="48.9238" lon="7.00314">
        <ele>225.57</ele>
        <time>2011-09-15T08:28:34Z</time>
      </trkpt>
      <trkpt lat="48.92375" lon="7.003">
        <ele>226.05</ele>
        <time>2011-09-15T08:28:41Z</time>
      </trkpt>
      <trkpt lat="48.92369" lon="7.00293">
        <ele>227.01</ele>
        <time>2011-09-15T08:28:51Z</time>
      </trkpt>
      <trkpt lat="48.92369" lon="7.00272">
        <ele>226.53</ele>
        <time>2011-09-15T08:31:32Z</time>
      </trkpt>
      <trkpt lat="48.92369" lon="7.00272">
        <ele>227.49</ele>
        <time>2011-09-15T08:31:57Z</time>
      </trkpt>
      <trkpt lat="48.9237" lon="7.00249">
        <ele>228.45</ele>
        <time>2011-09-15T08:34:28Z</time>
      </trkpt>
      <trkpt lat="48.92371" lon="7.00234">
        <ele>228.93</ele>
        <time>2011-09-15T08:34:45Z</time>
      </trkpt>
      <trkpt lat="48.92372" lon="7.00216">
        <ele>228.45</ele>
        <time>2011-09-15T08:35:24Z</time>
      </trkpt>
      <trkpt lat="48.92377" lon="7.00183">
        <ele>228.93</ele>
        <time>2011-09-15T08:35:46Z</time>
      </trkpt>
      <trkpt lat="48.9238" lon="7.00164">
        <ele>228.93</ele>
        <time>2011-09-15T08:35:59Z</time>
      </trkpt>
      <trkpt lat="48.92384" lon="7.00134">
        <ele>228.45</ele>
        <time>2011-09-15T08:36:19Z</time>
      </trkpt>
      <trkpt lat="48.92384" lon="7.00133">
        <ele>228.45</ele>
        <time>2011-09-15T08:36:20Z</time>
      </trkpt>
      <trkpt lat="48.92387" lon="7.00106">
        <ele>228.45</ele>
        <time>2011-09-15T08:36:35Z</time>
      </trkpt>
      <trkpt lat="48.9239" lon="7.00064">
        <ele>228.45</ele>
        <time>2011-09-15T08:37:00Z</time>
      </trkpt>
      <trkpt lat="48.92393" lon="7.00035">
        <ele>228.45</ele>
        <time>2011-09-15T08:37:17Z</time>
      </trkpt>
      <trkpt lat="48.92406" lon="7.00001">
        <ele>228.93</ele>
        <time>2011-09-15T08:37:39Z</time>
      </trkpt>
      <trkpt lat="48.92423" lon="6.99961">
        <ele>229.41</ele>
        <time>2011-09-15T08:38:05Z</time>
      </trkpt>
      <trkpt lat="48.92438" lon="6.99921">
        <ele>230.37</ele>
        <time>2011-09-15T08:38:30Z</time>
      </trkpt>
      <trkpt lat="48.92456" lon="6.99875">
        <ele>229.89</ele>
        <time>2011-09-15T08:39:02Z</time>
      </trkpt>
      <trkpt lat="48.92472" lon="6.99831">
        <ele>228.93</ele>
        <time>2011-09-15T08:39:30Z</time>
      </trkpt>
      <trkpt lat="48.92489" lon="6.99785">
        <ele>229.41</ele>
        <time>2011-09-15T08:39:57Z</time>
      </trkpt>
      <trkpt lat="48.92507" lon="6.99734">
        <ele>230.37</ele>
        <time>2011-09-15T08:40:29Z</time>
      </trkpt>
      <trkpt lat="48.92523" lon="6.99689">
        <ele>228.93</ele>
        <time>2011-09-15T08:40:58Z</time>
      </trkpt>
      <trkpt lat="48.92535" lon="6.99633">
        <ele>227.49</ele>
        <time>2011-09-15T08:41:30Z</time>
      </trkpt>
      <trkpt lat="48.92552" lon="6.99566">
        <ele>226.05</ele>
        <time>2011-09-15T08:42:06Z</time>
      </trkpt>
      <trkpt lat="48.92568" lon="6.99501">
        <ele>226.05</ele>
        <time>2011-09-15T08:42:41Z</time>
      </trkpt>
      <trkpt lat="48.92588" lon="6.99451">
        <ele>226.05</ele>
        <time>2011-09-15T08:43:13Z</time>
      </trkpt>
      <trkpt lat="48.92606" lon="6.99408">
        <ele>226.53</ele>
        <time>2011-09-15T08:43:41Z</time>
      </trkpt>
      <trkpt lat="48.92627" lon="6.9936">
        <ele>227.97</ele>
        <time>2011-09-15T08:44:12Z</time>
      </trkpt>
      <trkpt lat="48.92644" lon="6.99313">
        <ele>229.41</ele>
        <time>2011-09-15T08:44:41Z</time>
      </trkpt>
      <trkpt lat="48.92658" lon="6.9927">
        <ele>232.3</ele>
        <time>2011-09-15T08:45:09Z</time>
      </trkpt>
      <trkpt lat="48.92663" lon="6.99256">
        <ele>233.26</ele>
        <time>2011-09-15T08:45:28Z</time>
      </trkpt>
      <trkpt lat="48.92672" lon="6.99234">
        <ele>236.14</ele>
        <time>2011-09-15T08:45:47Z</time>
      </trkpt>
      <trkpt lat="48.92678" lon="6.99211">
        <ele>237.1</ele>
        <time>2011-09-15T08:46:07Z</time>
      </trkpt>
      <trkpt lat="48.92678" lon="6.99208">
        <ele>237.58</ele>
        <time>2011-09-15T08:46:25Z</time>
      </trkpt>
      <trkpt lat="48.9267" lon="6.99197">
        <ele>237.58</ele>
        <time>2011-09-15T08:46:45Z</time>
      </trkpt>
      <trkpt lat="48.92669" lon="6.99195">
        <ele>237.58</ele>
        <time>2011-09-15T08:46:50Z</time>
      </trkpt>
      <trkpt lat="48.92656" lon="6.99182">
        <ele>238.54</ele>
        <time>2011-09-15T08:47:06Z</time>
      </trkpt>
      <trkpt lat="48.92647" lon="6.99173">
        <ele>239.02</ele>
        <time>2011-09-15T08:47:24Z</time>
      </trkpt>
      <trkpt lat="48.92642" lon="6.99166">
        <ele>239.02</ele>
        <time>2011-09-15T08:47:44Z</time>
      </trkpt>
      <trkpt lat="48.9264" lon="6.99163">
        <ele>239.02</ele>
        <time>2011-09-15T08:48:10Z</time>
      </trkpt>
      <trkpt lat="48.92637" lon="6.99159">
        <ele>239.51</ele>
        <time>2011-09-15T08:48:41Z</time>
      </trkpt>
      <trkpt lat="48.92631" lon="6.99152">
        <ele>239.99</ele>
        <time>2011-09-15T08:49:16Z</time>
      </trkpt>
      <trkpt lat="48.92629" lon="6.9915">
        <ele>239.99</ele>
        <time>2011-09-15T08:50:09Z</time>
      </trkpt>
      <trkpt lat="48.92622" lon="6.99143">
        <ele>240.47</ele>
        <time>2011-09-15T08:50:28Z</time>
      </trkpt>
      <trkpt lat="48.926" lon="6.99118">
        <ele>240.95</ele>
        <time>2011-09-15T08:50:51Z</time>
      </trkpt>
      <trkpt lat="48.92578" lon="6.99094">
        <ele>241.43</ele>
        <time>2011-09-15T08:51:13Z</time>
      </trkpt>
      <trkpt lat="48.92557" lon="6.99079">
        <ele>242.39</ele>
        <time>2011-09-15T08:51:33Z</time>
      </trkpt>
      <trkpt lat="48.92534" lon="6.99068">
        <ele>244.31</ele>
        <time>2011-09-15T08:51:55Z</time>
      </trkpt>
      <trkpt lat="48.92525" lon="6.99058">
        <ele>244.31</ele>
        <time>2011-09-15T08:52:05Z</time>
      </trkpt>
      <trkpt lat="48.92523" lon="6.99056">
        <ele>244.79</ele>
        <time>2011-09-15T08:52:08Z</time>
      </trkpt>
      <trkpt lat="48.92504" lon="6.99027">
        <ele>245.75</ele>
        <time>2011-09-15T08:52:32Z</time>
      </trkpt>
      <trkpt lat="48.92487" lon="6.99">
        <ele>247.2</ele>
        <time>2011-09-15T08:52:56Z</time>
      </trkpt>
      <trkpt lat="48.92474" lon="6.9898">
        <ele>248.16</ele>
        <time>2011-09-15T08:53:17Z</time>
      </trkpt>
      <trkpt lat="48.92453" lon="6.98949">
        <ele>248.64</ele>
        <time>2011-09-15T08:53:45Z</time>
      </trkpt>
      <trkpt lat="48.92447" lon="6.9894">
        <ele>248.64</ele>
        <time>2011-09-15T08:54:02Z</time>
      </trkpt>
      <trkpt lat="48.92438" lon="6.98928">
        <ele>248.64</ele>
        <time>2011-09-15T08:54:12Z</time>
      </trkpt>
      <trkpt lat="48.92425" lon="6.98912">
        <ele>248.64</ele>
        <time>2011-09-15T08:54:34Z</time>
      </trkpt>
      <trkpt lat="48.9241" lon="6.98892">
        <ele>248.64</ele>
        <time>2011-09-15T08:54:53Z</time>
      </trkpt>
      <trkpt lat="48.92392" lon="6.98866">
        <ele>248.64</ele>
        <time>2011-09-15T08:55:15Z</time>
      </trkpt>
      <trkpt lat="48.92376" lon="6.98843">
        <ele>248.16</ele>
        <time>2011-09-15T08:55:38Z</time>
      </trkpt>
      <trkpt lat="48.92375" lon="6.98841">
        <ele>248.64</ele>
        <time>2011-09-15T08:56:07Z</time>
      </trkpt>
      <trkpt lat="48.92364" lon="6.98823">
        <ele>248.16</ele>
        <time>2011-09-15T08:56:26Z</time>
      </trkpt>
      <trkpt lat="48.92349" lon="6.988">
        <ele>247.68</ele>
        <time>2011-09-15T08:56:50Z</time>
      </trkpt>
      <trkpt lat="48.92349" lon="6.98798">
        <ele>247.68</ele>
        <time>2011-09-15T08:57:14Z</time>
      </trkpt>
      <trkpt lat="48.9235" lon="6.98801">
        <ele>248.16</ele>
        <time>2011-09-15T08:57:37Z</time>
      </trkpt>
      <trkpt lat="48.92348" lon="6.98798">
        <ele>248.16</ele>
        <time>2011-09-15T08:57:50Z</time>
      </trkpt>
      <trkpt lat="48.92348" lon="6.98797">
        <ele>247.68</ele>
        <time>2011-09-15T08:58:11Z</time>
      </trkpt>
      <trkpt lat="48.92334" lon="6.98775">
        <ele>247.68</ele>
        <time>2011-09-15T08:58:35Z</time>
      </trkpt>
      <trkpt lat="48.92324" lon="6.98762">
        <ele>247.68</ele>
        <time>2011-09-15T08:59:02Z</time>
      </trkpt>
      <trkpt lat="48.92324" lon="6.98763">
        <ele>248.16</ele>
        <time>2011-09-15T08:59:42Z</time>
      </trkpt>
      <trkpt lat="48.92324" lon="6.98763">
        <ele>247.68</ele>
        <time>2011-09-15T09:01:24Z</time>
      </trkpt>
      <trkpt lat="48.92324" lon="6.98764">
        <ele>247.68</ele>
        <time>2011-09-15T09:01:46Z</time>
      </trkpt>
      <trkpt lat="48.92326" lon="6.9876">
        <ele>248.64</ele>
        <time>2011-09-15T09:02:43Z</time>
      </trkpt>
      <trkpt lat="48.92322" lon="6.98756">
        <ele>248.16</ele>
        <time>2011-09-15T09:03:27Z</time>
      </trkpt>
      <trkpt lat="48.92318" lon="6.98751">
        <ele>247.68</ele>
        <time>2011-09-15T09:03:49Z</time>
      </trkpt>
      <trkpt lat="48.92313" lon="6.98745">
        <ele>248.16</ele>
        <time>2011-09-15T09:04:28Z</time>
      </trkpt>
      <trkpt lat="48.92307" lon="6.98735">
        <ele>248.64</ele>
        <time>2011-09-15T09:05:23Z</time>
      </trkpt>
      <trkpt lat="48.92293" lon="6.98715">
        <ele>248.16</ele>
        <time>2011-09-15T09:05:41Z</time>
      </trkpt>
      <trkpt lat="48.92283" lon="6.98699">
        <ele>247.68</ele>
        <time>2011-09-15T09:05:58Z</time>
      </trkpt>
      <trkpt lat="48.92275" lon="6.98688">
        <ele>247.2</ele>
        <time>2011-09-15T09:06:19Z</time>
      </trkpt>
      <trkpt lat="48.9226" lon="6.98666">
        <ele>247.68</ele>
        <time>2011-09-15T09:06:38Z</time>
      </trkpt>
      <trkpt lat="48.9223" lon="6.9862">
        <ele>247.68</ele>
        <time>2011-09-15T09:07:13Z</time>
      </trkpt>
      <trkpt lat="48.92198" lon="6.98586">
        <ele>247.2</ele>
        <time>2011-09-15T09:07:45Z</time>
      </trkpt>
      <trkpt lat="48.92176" lon="6.98566">
        <ele>247.68</ele>
        <time>2011-09-15T09:08:08Z</time>
      </trkpt>
      <trkpt lat="48.92145" lon="6.98534">
        <ele>248.16</ele>
        <time>2011-09-15T09:08:37Z</time>
      </trkpt>
      <trkpt lat="48.92108" lon="6.98499">
        <ele>248.64</ele>
        <time>2011-09-15T09:09:12Z</time>
      </trkpt>
      <trkpt lat="48.92079" lon="6.98465">
        <ele>248.64</ele>
        <time>2011-09-15T09:09:41Z</time>
      </trkpt>
      <trkpt lat="48.92052" lon="6.98428">
        <ele>249.12</ele>
        <time>2011-09-15T09:10:11Z</time>
      </trkpt>
      <trkpt lat="48.92027" lon="6.98397">
        <ele>249.12</ele>
        <time>2011-09-15T09:10:36Z</time>
      </trkpt>
      <trkpt lat="48.92008" lon="6.98372">
        <ele>248.64</ele>
        <time>2011-09-15T09:10:58Z</time>
      </trkpt>
      <trkpt lat="48.91994" lon="6.98352">
        <ele>248.16</ele>
        <time>2011-09-15T09:11:14Z</time>
      </trkpt>
      <trkpt lat="48.9199" lon="6.98349">
        <ele>248.64</ele>
        <time>2011-09-15T09:11:17Z</time>
      </trkpt>
      <trkpt lat="48.9198" lon="6.98333">
        <ele>248.16</ele>
        <time>2011-09-15T09:11:28Z</time>
      </trkpt>
      <trkpt lat="48.91968" lon="6.98323">
        <ele>247.68</ele>
        <time>2011-09-15T09:11:48Z</time>
      </trkpt>
      <trkpt lat="48.91966" lon="6.98319">
        <ele>247.68</ele>
        <time>2011-09-15T09:11:51Z</time>
      </trkpt>
      <trkpt lat="48.91959" lon="6.98306">
        <ele>247.68</ele>
        <time>2011-09-15T09:12:01Z</time>
      </trkpt>
      <trkpt lat="48.91956" lon="6.98302">
        <ele>247.68</ele>
        <time>2011-09-15T09:12:06Z</time>
      </trkpt>
      <trkpt lat="48.91951" lon="6.98298">
        <ele>247.68</ele>
        <time>2011-09-15T09:12:10Z</time>
      </trkpt>
      <trkpt lat="48.91942" lon="6.98293">
        <ele>247.68</ele>
        <time>2011-09-15T09:12:20Z</time>
      </trkpt>
      <trkpt lat="48.91942" lon="6.98295">
        <ele>247.68</ele>
        <time>2011-09-15T09:12:47Z</time>
      </trkpt>
      <trkpt lat="48.91941" lon="6.98295">
        <ele>247.68</ele>
        <time>2011-09-15T09:13:42Z</time>
      </trkpt>
      <trkpt lat="48.9194" lon="6.98295">
        <ele>247.68</ele>
        <time>2011-09-15T09:14:16Z</time>
      </trkpt>
      <trkpt lat="48.91939" lon="6.98296">
        <ele>247.68</ele>
        <time>2011-09-15T09:14:25Z</time>
      </trkpt>
      <trkpt lat="48.91921" lon="6.98304">
        <ele>248.16</ele>
        <time>2011-09-15T09:14:47Z</time>
      </trkpt>
      <trkpt lat="48.9189" lon="6.98311">
        <ele>247.68</ele>
        <time>2011-09-15T09:15:13Z</time>
      </trkpt>
      <trkpt lat="48.91866" lon="6.9832">
        <ele>248.16</ele>
        <time>2011-09-15T09:15:37Z</time>
      </trkpt>
      <trkpt lat="48.91843" lon="6.98328">
        <ele>248.64</ele>
        <time>2011-09-15T09:15:59Z</time>
      </trkpt>
      <trkpt lat="48.91825" lon="6.98334">
        <ele>248.16</ele>
        <time>2011-09-15T09:16:16Z</time>
      </trkpt>
      <trkpt lat="48.9182" lon="6.98336">
        <ele>248.64</ele>
        <time>2011-09-15T09:16:21Z</time>
      </trkpt>
      <trkpt lat="48.91816" lon="6.98338">
        <ele>249.12</ele>
        <time>2011-09-15T09:16:46Z</time>
      </trkpt>
      <trkpt lat="48.918" lon="6.98347">
        <ele>248.64</ele>
        <time>2011-09-15T09:17:01Z</time>
      </trkpt>
      <trkpt lat="48.91795" lon="6.98349">
        <ele>248.64</ele>
        <time>2011-09-15T09:17:20Z</time>
      </trkpt>
      <trkpt lat="48.91776" lon="6.98367">
        <ele>249.12</ele>
        <time>2011-09-15T09:17:53Z</time>
      </trkpt>
      <trkpt lat="48.9177" lon="6.98375">
        <ele>250.08</ele>
        <time>2011-09-15T09:18:14Z</time>
      </trkpt>
      <trkpt lat="48.91761" lon="6.98383">
        <ele>250.08</ele>
        <time>2011-09-15T09:18:31Z</time>
      </trkpt>
      <trkpt lat="48.91749" lon="6.98398">
        <ele>251.04</ele>
        <time>2011-09-15T09:18:44Z</time>
      </trkpt>
      <trkpt lat="48.91744" lon="6.984">
        <ele>251.04</ele>
        <time>2011-09-15T09:18:47Z</time>
      </trkpt>
      <trkpt lat="48.91739" lon="6.98406">
        <ele>252</ele>
        <time>2011-09-15T09:18:52Z</time>
      </trkpt>
      <trkpt lat="48.91723" lon="6.98417">
        <ele>252.48</ele>
        <time>2011-09-15T09:19:06Z</time>
      </trkpt>
      <trkpt lat="48.91718" lon="6.98422">
        <ele>252.96</ele>
        <time>2011-09-15T09:19:25Z</time>
      </trkpt>
      <trkpt lat="48.91713" lon="6.98427">
        <ele>253.44</ele>
        <time>2011-09-15T09:19:30Z</time>
      </trkpt>
      <trkpt lat="48.91695" lon="6.98446">
        <ele>253.44</ele>
        <time>2011-09-15T09:19:47Z</time>
      </trkpt>
      <trkpt lat="48.91689" lon="6.98492">
        <ele>252.48</ele>
        <time>2011-09-15T09:20:13Z</time>
      </trkpt>
      <trkpt lat="48.91689" lon="6.98538">
        <ele>252</ele>
        <time>2011-09-15T09:20:36Z</time>
      </trkpt>
      <trkpt lat="48.91687" lon="6.98581">
        <ele>252</ele>
        <time>2011-09-15T09:20:56Z</time>
      </trkpt>
      <trkpt lat="48.91685" lon="6.9861">
        <ele>252</ele>
        <time>2011-09-15T09:21:12Z</time>
      </trkpt>
      <trkpt lat="48.91682" lon="6.98656">
        <ele>252</ele>
        <time>2011-09-15T09:21:36Z</time>
      </trkpt>
      <trkpt lat="48.9168" lon="6.987">
        <ele>251.52</ele>
        <time>2011-09-15T09:21:58Z</time>
      </trkpt>
      <trkpt lat="48.91676" lon="6.98743">
        <ele>251.04</ele>
        <time>2011-09-15T09:22:19Z</time>
      </trkpt>
      <trkpt lat="48.91666" lon="6.98784">
        <ele>249.6</ele>
        <time>2011-09-15T09:22:42Z</time>
      </trkpt>
      <trkpt lat="48.91653" lon="6.98825">
        <ele>248.64</ele>
        <time>2011-09-15T09:23:06Z</time>
      </trkpt>
      <trkpt lat="48.91646" lon="6.98846">
        <ele>248.16</ele>
        <time>2011-09-15T09:23:18Z</time>
      </trkpt>
      <trkpt lat="48.91647" lon="6.98852">
        <ele>247.68</ele>
        <time>2011-09-15T09:23:28Z</time>
      </trkpt>
      <trkpt lat="48.91648" lon="6.98842">
        <ele>248.64</ele>
        <time>2011-09-15T09:23:50Z</time>
      </trkpt>
      <trkpt lat="48.91643" lon="6.98848">
        <ele>248.16</ele>
        <time>2011-09-15T09:24:02Z</time>
      </trkpt>
      <trkpt lat="48.91642" lon="6.98854">
        <ele>247.68</ele>
        <time>2011-09-15T09:24:06Z</time>
      </trkpt>
      <trkpt lat="48.91638" lon="6.98859">
        <ele>247.2</ele>
        <time>2011-09-15T09:24:10Z</time>
      </trkpt>
      <trkpt lat="48.91638" lon="6.98863">
        <ele>248.16</ele>
        <time>2011-09-15T09:24:12Z</time>
      </trkpt>
      <trkpt lat="48.9163" lon="6.98892">
        <ele>246.72</ele>
        <time>2011-09-15T09:24:29Z</time>
      </trkpt>
      <trkpt lat="48.91616" lon="6.98929">
        <ele>245.75</ele>
        <time>2011-09-15T09:24:51Z</time>
      </trkpt>
      <trkpt lat="48.91608" lon="6.98966">
        <ele>244.31</ele>
        <time>2011-09-15T09:25:11Z</time>
      </trkpt>
      <trkpt lat="48.91602" lon="6.99021">
        <ele>242.87</ele>
        <time>2011-09-15T09:25:39Z</time>
      </trkpt>
      <trkpt lat="48.91595" lon="6.99066">
        <ele>242.39</ele>
        <time>2011-09-15T09:26:02Z</time>
      </trkpt>
      <trkpt lat="48.91587" lon="6.99123">
        <ele>240.47</ele>
        <time>2011-09-15T09:26:31Z</time>
      </trkpt>
      <trkpt lat="48.91573" lon="6.9919">
        <ele>238.06</ele>
        <time>2011-09-15T09:27:06Z</time>
      </trkpt>
      <trkpt lat="48.91573" lon="6.99197">
        <ele>238.06</ele>
        <time>2011-09-15T09:27:25Z</time>
      </trkpt>
      <trkpt lat="48.91572" lon="6.99198">
        <ele>237.1</ele>
        <time>2011-09-15T09:28:26Z</time>
      </trkpt>
      <trkpt lat="48.91567" lon="6.99208">
        <ele>237.1</ele>
        <time>2011-09-15T09:28:32Z</time>
      </trkpt>
      <trkpt lat="48.91541" lon="6.99223">
        <ele>234.22</ele>
        <time>2011-09-15T09:28:50Z</time>
      </trkpt>
      <trkpt lat="48.91519" lon="6.99233">
        <ele>231.33</ele>
        <time>2011-09-15T09:29:06Z</time>
      </trkpt>
      <trkpt lat="48.91488" lon="6.99245">
        <ele>227.97</ele>
        <time>2011-09-15T09:29:29Z</time>
      </trkpt>
      <trkpt lat="48.91471" lon="6.99256">
        <ele>226.53</ele>
        <time>2011-09-15T09:29:43Z</time>
      </trkpt>
      <trkpt lat="48.91427" lon="6.99275">
        <ele>224.12</ele>
        <time>2011-09-15T09:30:12Z</time>
      </trkpt>
      <trkpt lat="48.91398" lon="6.99291">
        <ele>223.64</ele>
        <time>2011-09-15T09:30:33Z</time>
      </trkpt>
      <trkpt lat="48.91376" lon="6.99303">
        <ele>224.61</ele>
        <time>2011-09-15T09:30:50Z</time>
      </trkpt>
      <trkpt lat="48.91363" lon="6.99312">
        <ele>225.09</ele>
        <time>2011-09-15T09:31:00Z</time>
      </trkpt>
      <trkpt lat="48.9134" lon="6.99329">
        <ele>226.53</ele>
        <time>2011-09-15T09:31:20Z</time>
      </trkpt>
      <trkpt lat="48.91309" lon="6.99366">
        <ele>227.97</ele>
        <time>2011-09-15T09:31:49Z</time>
      </trkpt>
      <trkpt lat="48.91295" lon="6.99414">
        <ele>228.93</ele>
        <time>2011-09-15T09:32:12Z</time>
      </trkpt>
      <trkpt lat="48.91288" lon="6.99464">
        <ele>229.89</ele>
        <time>2011-09-15T09:32:35Z</time>
      </trkpt>
      <trkpt lat="48.91283" lon="6.99521">
        <ele>231.33</ele>
        <time>2011-09-15T09:33:01Z</time>
      </trkpt>
      <trkpt lat="48.91277" lon="6.99566">
        <ele>232.3</ele>
        <time>2011-09-15T09:33:22Z</time>
      </trkpt>
      <trkpt lat="48.91276" lon="6.99621">
        <ele>233.26</ele>
        <time>2011-09-15T09:33:48Z</time>
      </trkpt>
      <trkpt lat="48.91271" lon="6.99674">
        <ele>234.7</ele>
        <time>2011-09-15T09:34:14Z</time>
      </trkpt>
      <trkpt lat="48.91255" lon="6.9968">
        <ele>235.66</ele>
        <time>2011-09-15T09:34:35Z</time>
      </trkpt>
      <trkpt lat="48.91253" lon="6.99683">
        <ele>236.14</ele>
        <time>2011-09-15T09:34:39Z</time>
      </trkpt>
      <trkpt lat="48.91237" lon="6.99677">
        <ele>236.62</ele>
        <time>2011-09-15T09:34:53Z</time>
      </trkpt>
      <trkpt lat="48.91216" lon="6.99679">
        <ele>238.06</ele>
        <time>2011-09-15T09:35:07Z</time>
      </trkpt>
      <trkpt lat="48.91212" lon="6.99678">
        <ele>238.06</ele>
        <time>2011-09-15T09:35:11Z</time>
      </trkpt>
      <trkpt lat="48.91207" lon="6.9968">
        <ele>238.54</ele>
        <time>2011-09-15T09:35:14Z</time>
      </trkpt>
      <trkpt lat="48.91175" lon="6.99678">
        <ele>239.51</ele>
        <time>2011-09-15T09:35:38Z</time>
      </trkpt>
      <trkpt lat="48.91148" lon="6.99676">
        <ele>239.51</ele>
        <time>2011-09-15T09:35:58Z</time>
      </trkpt>
      <trkpt lat="48.91116" lon="6.99673">
        <ele>238.54</ele>
        <time>2011-09-15T09:36:22Z</time>
      </trkpt>
      <trkpt lat="48.91084" lon="6.99672">
        <ele>238.06</ele>
        <time>2011-09-15T09:36:46Z</time>
      </trkpt>
      <trkpt lat="48.91047" lon="6.9967">
        <ele>237.1</ele>
        <time>2011-09-15T09:37:13Z</time>
      </trkpt>
      <trkpt lat="48.91012" lon="6.99667">
        <ele>235.66</ele>
        <time>2011-09-15T09:37:39Z</time>
      </trkpt>
      <trkpt lat="48.90977" lon="6.99663">
        <ele>233.26</ele>
        <time>2011-09-15T09:38:06Z</time>
      </trkpt>
      <trkpt lat="48.9095" lon="6.9966">
        <ele>229.89</ele>
        <time>2011-09-15T09:38:27Z</time>
      </trkpt>
      <trkpt lat="48.90928" lon="6.99671">
        <ele>228.45</ele>
        <time>2011-09-15T09:38:48Z</time>
      </trkpt>
      <trkpt lat="48.90919" lon="6.99677">
        <ele>227.01</ele>
        <time>2011-09-15T09:39:03Z</time>
      </trkpt>
      <trkpt lat="48.90888" lon="6.99674">
        <ele>224.12</ele>
        <time>2011-09-15T09:39:29Z</time>
      </trkpt>
      <trkpt lat="48.9086" lon="6.9967">
        <ele>221.72</ele>
        <time>2011-09-15T09:39:59Z</time>
      </trkpt>
      <trkpt lat="48.90846" lon="6.99669">
        <ele>220.76</ele>
        <time>2011-09-15T09:40:17Z</time>
      </trkpt>
      <trkpt lat="48.90846" lon="6.99667">
        <ele>219.8</ele>
        <time>2011-09-15T09:40:26Z</time>
      </trkpt>
      <trkpt lat="48.90835" lon="6.99668">
        <ele>220.28</ele>
        <time>2011-09-15T09:40:37Z</time>
      </trkpt>
      <trkpt lat="48.90825" lon="6.99667">
        <ele>220.28</ele>
        <time>2011-09-15T09:40:55Z</time>
      </trkpt>
      <trkpt lat="48.90814" lon="6.99667">
        <ele>219.8</ele>
        <time>2011-09-15T09:41:08Z</time>
      </trkpt>
      <trkpt lat="48.9081" lon="6.99667">
        <ele>219.8</ele>
        <time>2011-09-15T09:41:13Z</time>
      </trkpt>
      <trkpt lat="48.90771" lon="6.99661">
        <ele>220.28</ele>
        <time>2011-09-15T09:41:44Z</time>
      </trkpt>
      <trkpt lat="48.90746" lon="6.99662">
        <ele>221.72</ele>
        <time>2011-09-15T09:42:10Z</time>
      </trkpt>
      <trkpt lat="48.90745" lon="6.99661">
        <ele>222.2</ele>
        <time>2011-09-15T09:42:24Z</time>
      </trkpt>
      <trkpt lat="48.90741" lon="6.99668">
        <ele>222.2</ele>
        <time>2011-09-15T09:42:30Z</time>
      </trkpt>
      <trkpt lat="48.90721" lon="6.997">
        <ele>222.68</ele>
        <time>2011-09-15T09:42:56Z</time>
      </trkpt>
      <trkpt lat="48.90716" lon="6.9971">
        <ele>222.68</ele>
        <time>2011-09-15T09:43:08Z</time>
      </trkpt>
      <trkpt lat="48.90713" lon="6.99712">
        <ele>222.68</ele>
        <time>2011-09-15T09:43:11Z</time>
      </trkpt>
      <trkpt lat="48.90697" lon="6.99744">
        <ele>223.16</ele>
        <time>2011-09-15T09:43:35Z</time>
      </trkpt>
      <trkpt lat="48.90678" lon="6.9977">
        <ele>222.68</ele>
        <time>2011-09-15T09:44:45Z</time>
      </trkpt>
      <trkpt lat="48.90672" lon="6.99782">
        <ele>222.68</ele>
        <time>2011-09-15T09:46:29Z</time>
      </trkpt>
      <trkpt lat="48.90648" lon="6.99827">
        <ele>222.68</ele>
        <time>2011-09-15T09:46:55Z</time>
      </trkpt>
      <trkpt lat="48.90611" lon="6.99892">
        <ele>222.2</ele>
        <time>2011-09-15T09:47:34Z</time>
      </trkpt>
      <trkpt lat="48.90587" lon="6.99927">
        <ele>223.16</ele>
        <time>2011-09-15T09:48:01Z</time>
      </trkpt>
      <trkpt lat="48.90584" lon="6.99927">
        <ele>223.16</ele>
        <time>2011-09-15T09:48:35Z</time>
      </trkpt>
      <trkpt lat="48.90577" lon="6.99923">
        <ele>223.16</ele>
        <time>2011-09-15T09:48:39Z</time>
      </trkpt>
      <trkpt lat="48.90564" lon="6.99922">
        <ele>224.61</ele>
        <time>2011-09-15T09:48:51Z</time>
      </trkpt>
      <trkpt lat="48.90547" lon="6.99917">
        <ele>225.57</ele>
        <time>2011-09-15T09:49:03Z</time>
      </trkpt>
      <trkpt lat="48.90542" lon="6.99919">
        <ele>226.05</ele>
        <time>2011-09-15T09:49:08Z</time>
      </trkpt>
      <trkpt lat="48.90532" lon="6.99921">
        <ele>226.05</ele>
        <time>2011-09-15T09:49:15Z</time>
      </trkpt>
      <trkpt lat="48.90516" lon="6.99919">
        <ele>227.01</ele>
        <time>2011-09-15T09:49:31Z</time>
      </trkpt>
      <trkpt lat="48.90512" lon="6.99921">
        <ele>227.01</ele>
        <time>2011-09-15T09:49:35Z</time>
      </trkpt>
      <trkpt lat="48.90492" lon="6.99918">
        <ele>228.45</ele>
        <time>2011-09-15T09:49:50Z</time>
      </trkpt>
      <trkpt lat="48.90473" lon="6.99916">
        <ele>229.41</ele>
        <time>2011-09-15T09:50:07Z</time>
      </trkpt>
      <trkpt lat="48.90454" lon="6.99918">
        <ele>230.85</ele>
        <time>2011-09-15T09:50:25Z</time>
      </trkpt>
      <trkpt lat="48.90444" lon="6.99913">
        <ele>230.85</ele>
        <time>2011-09-15T09:50:35Z</time>
      </trkpt>
      <trkpt lat="48.90421" lon="6.99913">
        <ele>232.78</ele>
        <time>2011-09-15T09:50:57Z</time>
      </trkpt>
      <trkpt lat="48.90419" lon="6.99912">
        <ele>232.78</ele>
        <time>2011-09-15T09:51:00Z</time>
      </trkpt>
      <trkpt lat="48.90405" lon="6.99912">
        <ele>232.78</ele>
        <time>2011-09-15T09:51:10Z</time>
      </trkpt>
      <trkpt lat="48.90388" lon="6.99909">
        <ele>233.74</ele>
        <time>2011-09-15T09:51:26Z</time>
      </trkpt>
      <trkpt lat="48.90368" lon="6.99906">
        <ele>234.22</ele>
        <time>2011-09-15T09:51:46Z</time>
      </trkpt>
      <trkpt lat="48.90348" lon="6.99899">
        <ele>233.74</ele>
        <time>2011-09-15T09:52:04Z</time>
      </trkpt>
      <trkpt lat="48.90337" lon="6.99899">
        <ele>233.26</ele>
        <time>2011-09-15T09:52:20Z</time>
      </trkpt>
      <trkpt lat="48.90333" lon="6.99886">
        <ele>232.78</ele>
        <time>2011-09-15T09:52:51Z</time>
      </trkpt>
      <trkpt lat="48.90331" lon="6.99874">
        <ele>232.78</ele>
        <time>2011-09-15T09:52:57Z</time>
      </trkpt>
      <trkpt lat="48.9033" lon="6.99857">
        <ele>233.26</ele>
        <time>2011-09-15T09:53:05Z</time>
      </trkpt>
      <trkpt lat="48.90328" lon="6.99848">
        <ele>233.26</ele>
        <time>2011-09-15T09:53:09Z</time>
      </trkpt>
      <trkpt lat="48.90327" lon="6.99843">
        <ele>233.26</ele>
        <time>2011-09-15T09:53:12Z</time>
      </trkpt>
      <trkpt lat="48.9032" lon="6.99809">
        <ele>233.74</ele>
        <time>2011-09-15T09:53:28Z</time>
      </trkpt>
      <trkpt lat="48.90318" lon="6.99789">
        <ele>234.22</ele>
        <time>2011-09-15T09:53:38Z</time>
      </trkpt>
      <trkpt lat="48.90316" lon="6.99762">
        <ele>235.18</ele>
        <time>2011-09-15T09:53:52Z</time>
      </trkpt>
      <trkpt lat="48.90315" lon="6.99734">
        <ele>236.14</ele>
        <time>2011-09-15T09:54:06Z</time>
      </trkpt>
      <trkpt lat="48.90316" lon="6.99712">
        <ele>235.66</ele>
        <time>2011-09-15T09:54:16Z</time>
      </trkpt>
      <trkpt lat="48.90319" lon="6.9968">
        <ele>236.62</ele>
        <time>2011-09-15T09:54:31Z</time>
      </trkpt>
      <trkpt lat="48.90324" lon="6.99649">
        <ele>236.62</ele>
        <time>2011-09-15T09:54:46Z</time>
      </trkpt>
      <trkpt lat="48.90328" lon="6.99638">
        <ele>236.62</ele>
        <time>2011-09-15T09:54:52Z</time>
      </trkpt>
      <trkpt lat="48.90329" lon="6.99632">
        <ele>237.1</ele>
        <time>2011-09-15T09:54:55Z</time>
      </trkpt>
      <trkpt lat="48.90329" lon="6.99626">
        <ele>236.62</ele>
        <time>2011-09-15T09:54:58Z</time>
      </trkpt>
      <trkpt lat="48.90331" lon="6.99618">
        <ele>237.58</ele>
        <time>2011-09-15T09:55:03Z</time>
      </trkpt>
      <trkpt lat="48.90339" lon="6.99588">
        <ele>237.58</ele>
        <time>2011-09-15T09:55:19Z</time>
      </trkpt>
      <trkpt lat="48.90343" lon="6.99568">
        <ele>237.58</ele>
        <time>2011-09-15T09:55:29Z</time>
      </trkpt>
      <trkpt lat="48.90348" lon="6.99549">
        <ele>238.06</ele>
        <time>2011-09-15T09:55:37Z</time>
      </trkpt>
      <trkpt lat="48.90349" lon="6.99547">
        <ele>238.54</ele>
        <time>2011-09-15T09:55:39Z</time>
      </trkpt>
      <trkpt lat="48.9035" lon="6.99537">
        <ele>238.06</ele>
        <time>2011-09-15T09:55:44Z</time>
      </trkpt>
      <trkpt lat="48.90355" lon="6.99509">
        <ele>239.02</ele>
        <time>2011-09-15T09:55:58Z</time>
      </trkpt>
      <trkpt lat="48.9036" lon="6.99499">
        <ele>239.02</ele>
        <time>2011-09-15T09:56:16Z</time>
      </trkpt>
      <trkpt lat="48.90348" lon="6.99497">
        <ele>238.06</ele>
        <time>2011-09-15T09:56:34Z</time>
      </trkpt>
      <trkpt lat="48.90347" lon="6.99497">
        <ele>238.54</ele>
        <time>2011-09-15T09:56:35Z</time>
      </trkpt>
      <trkpt lat="48.90341" lon="6.99498">
        <ele>237.58</ele>
        <time>2011-09-15T09:56:41Z</time>
      </trkpt>
      <trkpt lat="48.90322" lon="6.99487">
        <ele>236.14</ele>
        <time>2011-09-15T09:56:59Z</time>
      </trkpt>
      <trkpt lat="48.90317" lon="6.99484">
        <ele>236.14</ele>
        <time>2011-09-15T09:57:03Z</time>
      </trkpt>
      <trkpt lat="48.90297" lon="6.99478">
        <ele>235.18</ele>
        <time>2011-09-15T09:57:19Z</time>
      </trkpt>
      <trkpt lat="48.90277" lon="6.99469">
        <ele>233.74</ele>
        <time>2011-09-15T09:57:36Z</time>
      </trkpt>
      <trkpt lat="48.90261" lon="6.99463">
        <ele>232.78</ele>
        <time>2011-09-15T09:57:48Z</time>
      </trkpt>
      <trkpt lat="48.90244" lon="6.99454">
        <ele>231.33</ele>
        <time>2011-09-15T09:58:03Z</time>
      </trkpt>
      <trkpt lat="48.9022" lon="6.99445">
        <ele>229.41</ele>
        <time>2011-09-15T09:58:21Z</time>
      </trkpt>
      <trkpt lat="48.90219" lon="6.99462">
        <ele>229.41</ele>
        <time>2011-09-15T10:00:27Z</time>
      </trkpt>
      <trkpt lat="48.9022" lon="6.99496">
        <ele>230.37</ele>
        <time>2011-09-15T10:00:44Z</time>
      </trkpt>
      <trkpt lat="48.90219" lon="6.99526">
        <ele>230.85</ele>
        <time>2011-09-15T10:00:59Z</time>
      </trkpt>
      <trkpt lat="48.90219" lon="6.99529">
        <ele>230.37</ele>
        <time>2011-09-15T10:01:00Z</time>
      </trkpt>
      <trkpt lat="48.90219" lon="6.99535">
        <ele>230.37</ele>
        <time>2011-09-15T10:01:03Z</time>
      </trkpt>
      <trkpt lat="48.90219" lon="6.99538">
        <ele>230.85</ele>
        <time>2011-09-15T10:01:05Z</time>
      </trkpt>
      <trkpt lat="48.90217" lon="6.9955">
        <ele>230.85</ele>
        <time>2011-09-15T10:01:11Z</time>
      </trkpt>
      <trkpt lat="48.90218" lon="6.99557">
        <ele>230.37</ele>
        <time>2011-09-15T10:01:15Z</time>
      </trkpt>
      <trkpt lat="48.90217" lon="6.99579">
        <ele>230.85</ele>
        <time>2011-09-15T10:01:29Z</time>
      </trkpt>
      <trkpt lat="48.90215" lon="6.99582">
        <ele>230.85</ele>
        <time>2011-09-15T10:01:31Z</time>
      </trkpt>
      <trkpt lat="48.90217" lon="6.99586">
        <ele>230.85</ele>
        <time>2011-09-15T10:01:33Z</time>
      </trkpt>
      <trkpt lat="48.90215" lon="6.9959">
        <ele>230.85</ele>
        <time>2011-09-15T10:01:36Z</time>
      </trkpt>
      <trkpt lat="48.90214" lon="6.99598">
        <ele>231.33</ele>
        <time>2011-09-15T10:01:41Z</time>
      </trkpt>
      <trkpt lat="48.90212" lon="6.99619">
        <ele>230.85</ele>
        <time>2011-09-15T10:01:51Z</time>
      </trkpt>
      <trkpt lat="48.90207" lon="6.99645">
        <ele>230.37</ele>
        <time>2011-09-15T10:02:04Z</time>
      </trkpt>
      <trkpt lat="48.90207" lon="6.99652">
        <ele>230.85</ele>
        <time>2011-09-15T10:02:08Z</time>
      </trkpt>
      <trkpt lat="48.90208" lon="6.9966">
        <ele>230.85</ele>
        <time>2011-09-15T10:02:12Z</time>
      </trkpt>
      <trkpt lat="48.90207" lon="6.99664">
        <ele>230.37</ele>
        <time>2011-09-15T10:02:14Z</time>
      </trkpt>
      <trkpt lat="48.90207" lon="6.99668">
        <ele>230.85</ele>
        <time>2011-09-15T10:02:17Z</time>
      </trkpt>
      <trkpt lat="48.90207" lon="6.99681">
        <ele>230.85</ele>
        <time>2011-09-15T10:02:24Z</time>
      </trkpt>
      <trkpt lat="48.90204" lon="6.99708">
        <ele>231.33</ele>
        <time>2011-09-15T10:02:39Z</time>
      </trkpt>
      <trkpt lat="48.90204" lon="6.9971">
        <ele>230.85</ele>
        <time>2011-09-15T10:02:40Z</time>
      </trkpt>
      <trkpt lat="48.90198" lon="6.99737">
        <ele>230.37</ele>
        <time>2011-09-15T10:02:54Z</time>
      </trkpt>
      <trkpt lat="48.90195" lon="6.99765">
        <ele>229.41</ele>
        <time>2011-09-15T10:03:10Z</time>
      </trkpt>
      <trkpt lat="48.90192" lon="6.99792">
        <ele>228.93</ele>
        <time>2011-09-15T10:03:25Z</time>
      </trkpt>
      <trkpt lat="48.90191" lon="6.99797">
        <ele>228.93</ele>
        <time>2011-09-15T10:03:27Z</time>
      </trkpt>
      <trkpt lat="48.90187" lon="6.99827">
        <ele>227.97</ele>
        <time>2011-09-15T10:03:43Z</time>
      </trkpt>
      <trkpt lat="48.90188" lon="6.99841">
        <ele>227.49</ele>
        <time>2011-09-15T10:03:51Z</time>
      </trkpt>
      <trkpt lat="48.90189" lon="6.99846">
        <ele>227.49</ele>
        <time>2011-09-15T10:03:54Z</time>
      </trkpt>
      <trkpt lat="48.90188" lon="6.99861">
        <ele>227.01</ele>
        <time>2011-09-15T10:04:04Z</time>
      </trkpt>
      <trkpt lat="48.90187" lon="6.99869">
        <ele>226.53</ele>
        <time>2011-09-15T10:04:11Z</time>
      </trkpt>
      <trkpt lat="48.902" lon="6.99909">
        <ele>229.41</ele>
        <time>2011-09-15T10:37:05Z</time>
      </trkpt>
      <trkpt lat="48.90202" lon="6.99914">
        <ele>228.93</ele>
        <time>2011-09-15T10:37:08Z</time>
      </trkpt>
      <trkpt lat="48.90215" lon="6.9993">
        <ele>229.41</ele>
        <time>2011-09-15T10:37:19Z</time>
      </trkpt>
      <trkpt lat="48.90223" lon="6.99945">
        <ele>229.41</ele>
        <time>2011-09-15T10:37:29Z</time>
      </trkpt>
      <trkpt lat="48.90237" lon="6.99966">
        <ele>228.45</ele>
        <time>2011-09-15T10:37:43Z</time>
      </trkpt>
      <trkpt lat="48.90241" lon="6.99972">
        <ele>228.93</ele>
        <time>2011-09-15T10:37:47Z</time>
      </trkpt>
      <trkpt lat="48.90243" lon="6.99977">
        <ele>228.93</ele>
        <time>2011-09-15T10:37:50Z</time>
      </trkpt>
      <trkpt lat="48.90258" lon="6.99996">
        <ele>228.45</ele>
        <time>2011-09-15T10:38:01Z</time>
      </trkpt>
      <trkpt lat="48.90259" lon="6.99998">
        <ele>228.93</ele>
        <time>2011-09-15T10:38:02Z</time>
      </trkpt>
      <trkpt lat="48.90265" lon="7.00002">
        <ele>228.93</ele>
        <time>2011-09-15T10:38:05Z</time>
      </trkpt>
      <trkpt lat="48.90275" lon="7.00019">
        <ele>229.41</ele>
        <time>2011-09-15T10:38:15Z</time>
      </trkpt>
      <trkpt lat="48.90277" lon="7.00023">
        <ele>229.41</ele>
        <time>2011-09-15T10:38:17Z</time>
      </trkpt>
      <trkpt lat="48.90284" lon="7.00044">
        <ele>228.93</ele>
        <time>2011-09-15T10:38:29Z</time>
      </trkpt>
      <trkpt lat="48.90291" lon="7.00077">
        <ele>229.41</ele>
        <time>2011-09-15T10:38:47Z</time>
      </trkpt>
      <trkpt lat="48.90294" lon="7.00096">
        <ele>228.45</ele>
        <time>2011-09-15T10:38:58Z</time>
      </trkpt>
      <trkpt lat="48.90296" lon="7.00122">
        <ele>228.93</ele>
        <time>2011-09-15T10:39:10Z</time>
      </trkpt>
      <trkpt lat="48.90297" lon="7.00142">
        <ele>228.93</ele>
        <time>2011-09-15T10:39:22Z</time>
      </trkpt>
      <trkpt lat="48.90296" lon="7.00144">
        <ele>228.93</ele>
        <time>2011-09-15T10:39:24Z</time>
      </trkpt>
      <trkpt lat="48.90297" lon="7.00155">
        <ele>229.41</ele>
        <time>2011-09-15T10:39:30Z</time>
      </trkpt>
      <trkpt lat="48.90299" lon="7.00178">
        <ele>228.93</ele>
        <time>2011-09-15T10:39:41Z</time>
      </trkpt>
      <trkpt lat="48.90307" lon="7.00194">
        <ele>228.93</ele>
        <time>2011-09-15T10:39:49Z</time>
      </trkpt>
      <trkpt lat="48.90308" lon="7.00203">
        <ele>228.93</ele>
        <time>2011-09-15T10:39:55Z</time>
      </trkpt>
      <trkpt lat="48.9031" lon="7.00225">
        <ele>228.45</ele>
        <time>2011-09-15T10:40:08Z</time>
      </trkpt>
      <trkpt lat="48.90311" lon="7.00241">
        <ele>228.93</ele>
        <time>2011-09-15T10:40:20Z</time>
      </trkpt>
      <trkpt lat="48.90313" lon="7.0027">
        <ele>228.45</ele>
        <time>2011-09-15T10:40:34Z</time>
      </trkpt>
      <trkpt lat="48.90315" lon="7.00271">
        <ele>228.45</ele>
        <time>2011-09-15T10:40:36Z</time>
      </trkpt>
      <trkpt lat="48.90318" lon="7.00276">
        <ele>228.45</ele>
        <time>2011-09-15T10:40:39Z</time>
      </trkpt>
      <trkpt lat="48.90312" lon="7.00297">
        <ele>227.97</ele>
        <time>2011-09-15T10:40:51Z</time>
      </trkpt>
      <trkpt lat="48.90305" lon="7.00305">
        <ele>228.93</ele>
        <time>2011-09-15T10:41:01Z</time>
      </trkpt>
      <trkpt lat="48.90298" lon="7.00311">
        <ele>227.97</ele>
        <time>2011-09-15T10:41:10Z</time>
      </trkpt>
      <trkpt lat="48.90297" lon="7.00318">
        <ele>227.97</ele>
        <time>2011-09-15T10:41:14Z</time>
      </trkpt>
      <trkpt lat="48.90296" lon="7.00363">
        <ele>228.45</ele>
        <time>2011-09-15T10:41:40Z</time>
      </trkpt>
      <trkpt lat="48.90304" lon="7.00406">
        <ele>226.53</ele>
        <time>2011-09-15T10:42:05Z</time>
      </trkpt>
      <trkpt lat="48.90307" lon="7.00446">
        <ele>226.05</ele>
        <time>2011-09-15T10:42:26Z</time>
      </trkpt>
      <trkpt lat="48.9031" lon="7.00459">
        <ele>225.57</ele>
        <time>2011-09-15T10:42:35Z</time>
      </trkpt>
      <trkpt lat="48.90312" lon="7.00473">
        <ele>225.57</ele>
        <time>2011-09-15T10:42:42Z</time>
      </trkpt>
      <trkpt lat="48.90307" lon="7.00495">
        <ele>224.61</ele>
        <time>2011-09-15T10:42:55Z</time>
      </trkpt>
      <trkpt lat="48.90302" lon="7.00505">
        <ele>224.61</ele>
        <time>2011-09-15T10:43:07Z</time>
      </trkpt>
      <trkpt lat="48.90302" lon="7.00507">
        <ele>224.61</ele>
        <time>2011-09-15T10:43:09Z</time>
      </trkpt>
      <trkpt lat="48.90301" lon="7.00514">
        <ele>224.12</ele>
        <time>2011-09-15T10:43:26Z</time>
      </trkpt>
      <trkpt lat="48.90301" lon="7.00521">
        <ele>224.12</ele>
        <time>2011-09-15T10:43:37Z</time>
      </trkpt>
      <trkpt lat="48.90315" lon="7.00514">
        <ele>224.61</ele>
        <time>2011-09-15T10:44:26Z</time>
      </trkpt>
      <trkpt lat="48.90315" lon="7.00514">
        <ele>218.84</ele>
        <time>2011-09-15T12:45:39Z</time>
      </trkpt>
      <trkpt lat="48.90315" lon="7.00514">
        <ele>220.76</ele>
        <time>2011-09-15T12:45:40Z</time>
      </trkpt>
      <trkpt lat="48.90319" lon="7.00523">
        <ele>221.24</ele>
        <time>2011-09-15T12:46:49Z</time>
      </trkpt>
      <trkpt lat="48.90323" lon="7.00527">
        <ele>221.72</ele>
        <time>2011-09-15T12:47:16Z</time>
      </trkpt>
      <trkpt lat="48.90323" lon="7.00533">
        <ele>221.24</ele>
        <time>2011-09-15T12:47:35Z</time>
      </trkpt>
      <trkpt lat="48.90323" lon="7.00538">
        <ele>223.64</ele>
        <time>2011-09-15T12:47:45Z</time>
      </trkpt>
      <trkpt lat="48.90327" lon="7.00551">
        <ele>226.05</ele>
        <time>2011-09-15T12:48:07Z</time>
      </trkpt>
      <trkpt lat="48.90327" lon="7.00554">
        <ele>226.53</ele>
        <time>2011-09-15T12:48:11Z</time>
      </trkpt>
      <trkpt lat="48.90329" lon="7.00557">
        <ele>227.01</ele>
        <time>2011-09-15T12:48:29Z</time>
      </trkpt>
      <trkpt lat="48.90332" lon="7.00566">
        <ele>226.53</ele>
        <time>2011-09-15T12:48:49Z</time>
      </trkpt>
      <trkpt lat="48.90334" lon="7.00572">
        <ele>226.53</ele>
        <time>2011-09-15T12:48:58Z</time>
      </trkpt>
      <trkpt lat="48.90337" lon="7.00585">
        <ele>227.01</ele>
        <time>2011-09-15T12:49:09Z</time>
      </trkpt>
      <trkpt lat="48.90342" lon="7.00599">
        <ele>227.01</ele>
        <time>2011-09-15T12:49:25Z</time>
      </trkpt>
      <trkpt lat="48.90351" lon="7.00621">
        <ele>227.01</ele>
        <time>2011-09-15T12:49:45Z</time>
      </trkpt>
      <trkpt lat="48.90358" lon="7.00639">
        <ele>227.01</ele>
        <time>2011-09-15T12:49:58Z</time>
      </trkpt>
      <trkpt lat="48.90371" lon="7.00663">
        <ele>226.53</ele>
        <time>2011-09-15T12:50:18Z</time>
      </trkpt>
      <trkpt lat="48.90384" lon="7.00682">
        <ele>226.53</ele>
        <time>2011-09-15T12:50:35Z</time>
      </trkpt>
      <trkpt lat="48.90403" lon="7.00703">
        <ele>226.53</ele>
        <time>2011-09-15T12:50:55Z</time>
      </trkpt>
      <trkpt lat="48.90404" lon="7.00703">
        <ele>226.53</ele>
        <time>2011-09-15T12:50:56Z</time>
      </trkpt>
      <trkpt lat="48.90413" lon="7.0071">
        <ele>226.53</ele>
        <time>2011-09-15T12:51:05Z</time>
      </trkpt>
      <trkpt lat="48.90416" lon="7.00713">
        <ele>226.53</ele>
        <time>2011-09-15T12:51:08Z</time>
      </trkpt>
      <trkpt lat="48.90434" lon="7.00735">
        <ele>226.53</ele>
        <time>2011-09-15T12:51:29Z</time>
      </trkpt>
      <trkpt lat="48.90436" lon="7.00738">
        <ele>226.53</ele>
        <time>2011-09-15T12:51:32Z</time>
      </trkpt>
      <trkpt lat="48.90436" lon="7.00738">
        <ele>234.7</ele>
        <time>2011-09-15T12:51:40Z</time>
      </trkpt>
      <trkpt lat="48.90436" lon="7.00738">
        <ele>225.57</ele>
        <time>2011-09-15T12:51:41Z</time>
      </trkpt>
      <trkpt lat="48.90446" lon="7.0074">
        <ele>226.53</ele>
        <time>2011-09-15T12:51:44Z</time>
      </trkpt>
      <trkpt lat="48.9045" lon="7.00744">
        <ele>226.53</ele>
        <time>2011-09-15T12:51:49Z</time>
      </trkpt>
      <trkpt lat="48.90454" lon="7.00746">
        <ele>226.53</ele>
        <time>2011-09-15T12:51:51Z</time>
      </trkpt>
      <trkpt lat="48.90468" lon="7.00757">
        <ele>226.53</ele>
        <time>2011-09-15T12:52:05Z</time>
      </trkpt>
      <trkpt lat="48.90475" lon="7.00763">
        <ele>226.53</ele>
        <time>2011-09-15T12:52:11Z</time>
      </trkpt>
      <trkpt lat="48.90492" lon="7.00769">
        <ele>226.53</ele>
        <time>2011-09-15T12:52:26Z</time>
      </trkpt>
      <trkpt lat="48.90507" lon="7.00774">
        <ele>226.05</ele>
        <time>2011-09-15T12:52:42Z</time>
      </trkpt>
      <trkpt lat="48.90516" lon="7.00778">
        <ele>226.53</ele>
        <time>2011-09-15T12:52:52Z</time>
      </trkpt>
      <trkpt lat="48.9052" lon="7.00776">
        <ele>226.05</ele>
        <time>2011-09-15T12:52:55Z</time>
      </trkpt>
      <trkpt lat="48.90544" lon="7.00776">
        <ele>226.53</ele>
        <time>2011-09-15T12:53:10Z</time>
      </trkpt>
      <trkpt lat="48.9056" lon="7.00783">
        <ele>226.53</ele>
        <time>2011-09-15T12:53:27Z</time>
      </trkpt>
      <trkpt lat="48.90572" lon="7.00788">
        <ele>226.53</ele>
        <time>2011-09-15T12:53:39Z</time>
      </trkpt>
      <trkpt lat="48.90593" lon="7.00792">
        <ele>226.53</ele>
        <time>2011-09-15T12:53:55Z</time>
      </trkpt>
      <trkpt lat="48.90612" lon="7.00793">
        <ele>227.01</ele>
        <time>2011-09-15T12:54:09Z</time>
      </trkpt>
      <trkpt lat="48.90635" lon="7.00793">
        <ele>226.53</ele>
        <time>2011-09-15T12:54:25Z</time>
      </trkpt>
      <trkpt lat="48.9066" lon="7.00792">
        <ele>227.01</ele>
        <time>2011-09-15T12:54:43Z</time>
      </trkpt>
      <trkpt lat="48.90677" lon="7.00794">
        <ele>226.53</ele>
        <time>2011-09-15T12:54:56Z</time>
      </trkpt>
      <trkpt lat="48.90682" lon="7.00797">
        <ele>226.53</ele>
        <time>2011-09-15T12:55:01Z</time>
      </trkpt>
      <trkpt lat="48.90686" lon="7.008">
        <ele>226.53</ele>
        <time>2011-09-15T12:55:05Z</time>
      </trkpt>
      <trkpt lat="48.90714" lon="7.00798">
        <ele>226.53</ele>
        <time>2011-09-15T12:55:23Z</time>
      </trkpt>
      <trkpt lat="48.90734" lon="7.00802">
        <ele>226.53</ele>
        <time>2011-09-15T12:55:40Z</time>
      </trkpt>
      <trkpt lat="48.90757" lon="7.00807">
        <ele>226.05</ele>
        <time>2011-09-15T12:55:58Z</time>
      </trkpt>
      <trkpt lat="48.90778" lon="7.00819">
        <ele>226.05</ele>
        <time>2011-09-15T12:56:14Z</time>
      </trkpt>
      <trkpt lat="48.90798" lon="7.00818">
        <ele>226.53</ele>
        <time>2011-09-15T12:56:25Z</time>
      </trkpt>
      <trkpt lat="48.90818" lon="7.00824">
        <ele>227.01</ele>
        <time>2011-09-15T12:56:41Z</time>
      </trkpt>
      <trkpt lat="48.90821" lon="7.00827">
        <ele>226.53</ele>
        <time>2011-09-15T12:56:44Z</time>
      </trkpt>
      <trkpt lat="48.90834" lon="7.0083">
        <ele>227.01</ele>
        <time>2011-09-15T12:56:54Z</time>
      </trkpt>
      <trkpt lat="48.90835" lon="7.00832">
        <ele>226.53</ele>
        <time>2011-09-15T12:56:56Z</time>
      </trkpt>
      <trkpt lat="48.90839" lon="7.00834">
        <ele>226.53</ele>
        <time>2011-09-15T12:57:00Z</time>
      </trkpt>
      <trkpt lat="48.90853" lon="7.00843">
        <ele>227.01</ele>
        <time>2011-09-15T12:57:11Z</time>
      </trkpt>
      <trkpt lat="48.90858" lon="7.00849">
        <ele>226.53</ele>
        <time>2011-09-15T12:57:18Z</time>
      </trkpt>
      <trkpt lat="48.90863" lon="7.0085">
        <ele>226.05</ele>
        <time>2011-09-15T12:57:21Z</time>
      </trkpt>
      <trkpt lat="48.90893" lon="7.00863">
        <ele>226.05</ele>
        <time>2011-09-15T12:57:40Z</time>
      </trkpt>
      <trkpt lat="48.90923" lon="7.0088">
        <ele>226.05</ele>
        <time>2011-09-15T12:58:03Z</time>
      </trkpt>
      <trkpt lat="48.90942" lon="7.00894">
        <ele>226.53</ele>
        <time>2011-09-15T12:58:19Z</time>
      </trkpt>
      <trkpt lat="48.90947" lon="7.00898">
        <ele>226.05</ele>
        <time>2011-09-15T12:58:24Z</time>
      </trkpt>
      <trkpt lat="48.90968" lon="7.00918">
        <ele>226.05</ele>
        <time>2011-09-15T12:58:42Z</time>
      </trkpt>
      <trkpt lat="48.90988" lon="7.00945">
        <ele>226.05</ele>
        <time>2011-09-15T12:59:02Z</time>
      </trkpt>
      <trkpt lat="48.91006" lon="7.00975">
        <ele>226.53</ele>
        <time>2011-09-15T12:59:23Z</time>
      </trkpt>
      <trkpt lat="48.91021" lon="7.00996">
        <ele>226.05</ele>
        <time>2011-09-15T12:59:41Z</time>
      </trkpt>
      <trkpt lat="48.91043" lon="7.01026">
        <ele>225.57</ele>
        <time>2011-09-15T13:00:05Z</time>
      </trkpt>
      <trkpt lat="48.91048" lon="7.0103">
        <ele>226.05</ele>
        <time>2011-09-15T13:00:09Z</time>
      </trkpt>
      <trkpt lat="48.91054" lon="7.01035">
        <ele>226.05</ele>
        <time>2011-09-15T13:00:15Z</time>
      </trkpt>
      <trkpt lat="48.91057" lon="7.01037">
        <ele>226.05</ele>
        <time>2011-09-15T13:00:17Z</time>
      </trkpt>
      <trkpt lat="48.91065" lon="7.01046">
        <ele>225.57</ele>
        <time>2011-09-15T13:00:23Z</time>
      </trkpt>
      <trkpt lat="48.91067" lon="7.01048">
        <ele>226.05</ele>
        <time>2011-09-15T13:00:25Z</time>
      </trkpt>
      <trkpt lat="48.9109" lon="7.01073">
        <ele>226.05</ele>
        <time>2011-09-15T13:00:47Z</time>
      </trkpt>
      <trkpt lat="48.9111" lon="7.01092">
        <ele>225.09</ele>
        <time>2011-09-15T13:01:05Z</time>
      </trkpt>
      <trkpt lat="48.91112" lon="7.01094">
        <ele>225.57</ele>
        <time>2011-09-15T13:01:07Z</time>
      </trkpt>
      <trkpt lat="48.91125" lon="7.01119">
        <ele>226.53</ele>
        <time>2011-09-15T13:01:21Z</time>
      </trkpt>
      <trkpt lat="48.91133" lon="7.01132">
        <ele>227.97</ele>
        <time>2011-09-15T13:01:34Z</time>
      </trkpt>
      <trkpt lat="48.91151" lon="7.01154">
        <ele>229.41</ele>
        <time>2011-09-15T13:01:53Z</time>
      </trkpt>
      <trkpt lat="48.91152" lon="7.01158">
        <ele>229.41</ele>
        <time>2011-09-15T13:02:01Z</time>
      </trkpt>
      <trkpt lat="48.91154" lon="7.01171">
        <ele>229.89</ele>
        <time>2011-09-15T13:02:12Z</time>
      </trkpt>
      <trkpt lat="48.91147" lon="7.01187">
        <ele>227.97</ele>
        <time>2011-09-15T13:02:24Z</time>
      </trkpt>
      <trkpt lat="48.91143" lon="7.01194">
        <ele>227.01</ele>
        <time>2011-09-15T13:02:30Z</time>
      </trkpt>
      <trkpt lat="48.91126" lon="7.0121">
        <ele>225.09</ele>
        <time>2011-09-15T13:02:45Z</time>
      </trkpt>
      <trkpt lat="48.91111" lon="7.01224">
        <ele>224.12</ele>
        <time>2011-09-15T13:02:58Z</time>
      </trkpt>
      <trkpt lat="48.91108" lon="7.01227">
        <ele>224.12</ele>
        <time>2011-09-15T13:03:01Z</time>
      </trkpt>
      <trkpt lat="48.91102" lon="7.01235">
        <ele>223.16</ele>
        <time>2011-09-15T13:03:08Z</time>
      </trkpt>
      <trkpt lat="48.911" lon="7.01239">
        <ele>223.16</ele>
        <time>2011-09-15T13:03:10Z</time>
      </trkpt>
      <trkpt lat="48.91089" lon="7.01259">
        <ele>222.68</ele>
        <time>2011-09-15T13:03:21Z</time>
      </trkpt>
      <trkpt lat="48.91071" lon="7.01293">
        <ele>222.68</ele>
        <time>2011-09-15T13:03:42Z</time>
      </trkpt>
      <trkpt lat="48.91052" lon="7.01328">
        <ele>222.68</ele>
        <time>2011-09-15T13:04:04Z</time>
      </trkpt>
      <trkpt lat="48.91046" lon="7.01337">
        <ele>222.2</ele>
        <time>2011-09-15T13:04:10Z</time>
      </trkpt>
      <trkpt lat="48.91042" lon="7.01344">
        <ele>222.2</ele>
        <time>2011-09-15T13:04:16Z</time>
      </trkpt>
      <trkpt lat="48.91039" lon="7.01348">
        <ele>222.2</ele>
        <time>2011-09-15T13:04:18Z</time>
      </trkpt>
      <trkpt lat="48.91027" lon="7.01363">
        <ele>222.2</ele>
        <time>2011-09-15T13:04:32Z</time>
      </trkpt>
      <trkpt lat="48.91011" lon="7.01386">
        <ele>223.16</ele>
        <time>2011-09-15T13:04:50Z</time>
      </trkpt>
      <trkpt lat="48.90997" lon="7.01409">
        <ele>223.16</ele>
        <time>2011-09-15T13:05:10Z</time>
      </trkpt>
      <trkpt lat="48.90997" lon="7.01413">
        <ele>224.12</ele>
        <time>2011-09-15T13:05:12Z</time>
      </trkpt>
      <trkpt lat="48.90981" lon="7.0143">
        <ele>224.12</ele>
        <time>2011-09-15T13:05:27Z</time>
      </trkpt>
      <trkpt lat="48.90965" lon="7.01453">
        <ele>226.53</ele>
        <time>2011-09-15T13:05:47Z</time>
      </trkpt>
      <trkpt lat="48.90955" lon="7.01473">
        <ele>227.49</ele>
        <time>2011-09-15T13:06:02Z</time>
      </trkpt>
      <trkpt lat="48.90955" lon="7.01484">
        <ele>227.97</ele>
        <time>2011-09-15T13:06:07Z</time>
      </trkpt>
      <trkpt lat="48.90952" lon="7.0149">
        <ele>228.93</ele>
        <time>2011-09-15T13:06:11Z</time>
      </trkpt>
      <trkpt lat="48.90953" lon="7.01517">
        <ele>229.89</ele>
        <time>2011-09-15T13:06:23Z</time>
      </trkpt>
      <trkpt lat="48.9095" lon="7.01526">
        <ele>229.89</ele>
        <time>2011-09-15T13:06:29Z</time>
      </trkpt>
      <trkpt lat="48.9095" lon="7.01536">
        <ele>230.37</ele>
        <time>2011-09-15T13:06:33Z</time>
      </trkpt>
      <trkpt lat="48.90933" lon="7.01559">
        <ele>230.37</ele>
        <time>2011-09-15T13:06:51Z</time>
      </trkpt>
      <trkpt lat="48.90905" lon="7.01602">
        <ele>230.37</ele>
        <time>2011-09-15T13:07:20Z</time>
      </trkpt>
      <trkpt lat="48.90887" lon="7.0163">
        <ele>230.37</ele>
        <time>2011-09-15T13:07:40Z</time>
      </trkpt>
      <trkpt lat="48.90875" lon="7.0164">
        <ele>230.37</ele>
        <time>2011-09-15T13:07:54Z</time>
      </trkpt>
      <trkpt lat="48.90863" lon="7.01657">
        <ele>230.85</ele>
        <time>2011-09-15T13:08:06Z</time>
      </trkpt>
      <trkpt lat="48.90857" lon="7.0166">
        <ele>231.33</ele>
        <time>2011-09-15T13:08:13Z</time>
      </trkpt>
      <trkpt lat="48.90845" lon="7.01663">
        <ele>233.26</ele>
        <time>2011-09-15T13:08:31Z</time>
      </trkpt>
      <trkpt lat="48.90825" lon="7.01663">
        <ele>234.22</ele>
        <time>2011-09-15T13:08:48Z</time>
      </trkpt>
      <trkpt lat="48.90799" lon="7.01662">
        <ele>235.66</ele>
        <time>2011-09-15T13:09:10Z</time>
      </trkpt>
      <trkpt lat="48.90796" lon="7.01661">
        <ele>235.66</ele>
        <time>2011-09-15T13:09:14Z</time>
      </trkpt>
      <trkpt lat="48.90778" lon="7.01661">
        <ele>237.1</ele>
        <time>2011-09-15T13:09:31Z</time>
      </trkpt>
      <trkpt lat="48.90759" lon="7.01669">
        <ele>238.06</ele>
        <time>2011-09-15T13:09:49Z</time>
      </trkpt>
      <trkpt lat="48.90758" lon="7.01671">
        <ele>238.06</ele>
        <time>2011-09-15T13:09:50Z</time>
      </trkpt>
      <trkpt lat="48.90742" lon="7.01688">
        <ele>238.54</ele>
        <time>2011-09-15T13:10:12Z</time>
      </trkpt>
      <trkpt lat="48.90732" lon="7.01705">
        <ele>237.58</ele>
        <time>2011-09-15T13:10:30Z</time>
      </trkpt>
      <trkpt lat="48.90721" lon="7.01732">
        <ele>236.62</ele>
        <time>2011-09-15T13:10:53Z</time>
      </trkpt>
      <trkpt lat="48.90717" lon="7.01776">
        <ele>237.1</ele>
        <time>2011-09-15T13:11:13Z</time>
      </trkpt>
      <trkpt lat="48.90713" lon="7.01807">
        <ele>235.66</ele>
        <time>2011-09-15T13:11:34Z</time>
      </trkpt>
      <trkpt lat="48.90715" lon="7.01815">
        <ele>235.66</ele>
        <time>2011-09-15T13:11:42Z</time>
      </trkpt>
      <trkpt lat="48.90713" lon="7.01829">
        <ele>235.18</ele>
        <time>2011-09-15T13:11:54Z</time>
      </trkpt>
      <trkpt lat="48.90713" lon="7.01858">
        <ele>234.7</ele>
        <time>2011-09-15T13:12:09Z</time>
      </trkpt>
      <trkpt lat="48.90712" lon="7.01879">
        <ele>234.7</ele>
        <time>2011-09-15T13:12:19Z</time>
      </trkpt>
      <trkpt lat="48.90712" lon="7.01907">
        <ele>233.74</ele>
        <time>2011-09-15T13:12:33Z</time>
      </trkpt>
      <trkpt lat="48.90709" lon="7.01932">
        <ele>233.74</ele>
        <time>2011-09-15T13:12:44Z</time>
      </trkpt>
      <trkpt lat="48.90706" lon="7.01964">
        <ele>233.74</ele>
        <time>2011-09-15T13:12:58Z</time>
      </trkpt>
      <trkpt lat="48.90706" lon="7.01981">
        <ele>234.22</ele>
        <time>2011-09-15T13:13:11Z</time>
      </trkpt>
      <trkpt lat="48.90704" lon="7.02019">
        <ele>234.7</ele>
        <time>2011-09-15T13:13:33Z</time>
      </trkpt>
      <trkpt lat="48.90704" lon="7.02053">
        <ele>234.7</ele>
        <time>2011-09-15T13:13:52Z</time>
      </trkpt>
      <trkpt lat="48.90705" lon="7.02074">
        <ele>234.7</ele>
        <time>2011-09-15T13:14:00Z</time>
      </trkpt>
      <trkpt lat="48.90702" lon="7.02105">
        <ele>235.18</ele>
        <time>2011-09-15T13:14:14Z</time>
      </trkpt>
      <trkpt lat="48.90705" lon="7.02152">
        <ele>236.14</ele>
        <time>2011-09-15T13:14:34Z</time>
      </trkpt>
      <trkpt lat="48.90704" lon="7.02212">
        <ele>236.14</ele>
        <time>2011-09-15T13:14:51Z</time>
      </trkpt>
      <trkpt lat="48.90701" lon="7.02308">
        <ele>237.1</ele>
        <time>2011-09-15T13:15:14Z</time>
      </trkpt>
      <trkpt lat="48.90699" lon="7.02374">
        <ele>237.58</ele>
        <time>2011-09-15T13:15:34Z</time>
      </trkpt>
      <trkpt lat="48.90697" lon="7.0242">
        <ele>238.06</ele>
        <time>2011-09-15T13:15:57Z</time>
      </trkpt>
      <trkpt lat="48.90696" lon="7.02455">
        <ele>239.51</ele>
        <time>2011-09-15T13:16:17Z</time>
      </trkpt>
      <trkpt lat="48.90695" lon="7.02503">
        <ele>239.51</ele>
        <time>2011-09-15T13:16:44Z</time>
      </trkpt>
      <trkpt lat="48.90694" lon="7.02571">
        <ele>239.99</ele>
        <time>2011-09-15T13:17:19Z</time>
      </trkpt>
      <trkpt lat="48.90694" lon="7.02623">
        <ele>240.95</ele>
        <time>2011-09-15T13:17:42Z</time>
      </trkpt>
      <trkpt lat="48.9069" lon="7.02673">
        <ele>241.43</ele>
        <time>2011-09-15T13:18:10Z</time>
      </trkpt>
      <trkpt lat="48.90688" lon="7.02721">
        <ele>242.87</ele>
        <time>2011-09-15T13:18:32Z</time>
      </trkpt>
      <trkpt lat="48.90687" lon="7.02752">
        <ele>244.31</ele>
        <time>2011-09-15T13:18:50Z</time>
      </trkpt>
      <trkpt lat="48.90687" lon="7.02804">
        <ele>245.75</ele>
        <time>2011-09-15T13:19:20Z</time>
      </trkpt>
      <trkpt lat="48.90686" lon="7.02854">
        <ele>246.72</ele>
        <time>2011-09-15T13:19:50Z</time>
      </trkpt>
      <trkpt lat="48.90683" lon="7.02897">
        <ele>247.2</ele>
        <time>2011-09-15T13:20:13Z</time>
      </trkpt>
      <trkpt lat="48.90678" lon="7.02947">
        <ele>247.68</ele>
        <time>2011-09-15T13:20:36Z</time>
      </trkpt>
      <trkpt lat="48.9068" lon="7.02978">
        <ele>248.64</ele>
        <time>2011-09-15T13:20:53Z</time>
      </trkpt>
      <trkpt lat="48.90682" lon="7.03016">
        <ele>248.64</ele>
        <time>2011-09-15T13:21:18Z</time>
      </trkpt>
      <trkpt lat="48.90676" lon="7.03049">
        <ele>249.6</ele>
        <time>2011-09-15T13:21:40Z</time>
      </trkpt>
      <trkpt lat="48.90677" lon="7.03092">
        <ele>250.08</ele>
        <time>2011-09-15T13:22:02Z</time>
      </trkpt>
      <trkpt lat="48.90679" lon="7.03127">
        <ele>251.04</ele>
        <time>2011-09-15T13:22:23Z</time>
      </trkpt>
      <trkpt lat="48.90681" lon="7.03157">
        <ele>252</ele>
        <time>2011-09-15T13:22:39Z</time>
      </trkpt>
      <trkpt lat="48.90681" lon="7.03209">
        <ele>252.96</ele>
        <time>2011-09-15T13:22:57Z</time>
      </trkpt>
      <trkpt lat="48.90681" lon="7.03217">
        <ele>253.44</ele>
        <time>2011-09-15T13:23:01Z</time>
      </trkpt>
      <trkpt lat="48.90678" lon="7.03238">
        <ele>254.41</ele>
        <time>2011-09-15T13:23:16Z</time>
      </trkpt>
      <trkpt lat="48.90674" lon="7.03271">
        <ele>255.37</ele>
        <time>2011-09-15T13:23:37Z</time>
      </trkpt>
      <trkpt lat="48.90668" lon="7.03305">
        <ele>256.33</ele>
        <time>2011-09-15T13:23:58Z</time>
      </trkpt>
      <trkpt lat="48.90658" lon="7.03333">
        <ele>256.33</ele>
        <time>2011-09-15T13:24:14Z</time>
      </trkpt>
      <trkpt lat="48.9065" lon="7.03367">
        <ele>257.29</ele>
        <time>2011-09-15T13:24:25Z</time>
      </trkpt>
      <trkpt lat="48.90636" lon="7.03379">
        <ele>257.77</ele>
        <time>2011-09-15T13:24:36Z</time>
      </trkpt>
      <trkpt lat="48.90601" lon="7.03393">
        <ele>257.77</ele>
        <time>2011-09-15T13:24:53Z</time>
      </trkpt>
      <trkpt lat="48.90578" lon="7.03397">
        <ele>258.73</ele>
        <time>2011-09-15T13:25:12Z</time>
      </trkpt>
      <trkpt lat="48.90566" lon="7.03415">
        <ele>258.73</ele>
        <time>2011-09-15T13:25:43Z</time>
      </trkpt>
      <trkpt lat="48.90568" lon="7.03428">
        <ele>259.21</ele>
        <time>2011-09-15T13:26:07Z</time>
      </trkpt>
      <trkpt lat="48.90566" lon="7.03423">
        <ele>259.21</ele>
        <time>2011-09-15T13:26:31Z</time>
      </trkpt>
      <trkpt lat="48.90581" lon="7.0343">
        <ele>259.69</ele>
        <time>2011-09-15T13:27:10Z</time>
      </trkpt>
      <trkpt lat="48.90593" lon="7.0344">
        <ele>259.21</ele>
        <time>2011-09-15T13:27:23Z</time>
      </trkpt>
      <trkpt lat="48.90614" lon="7.03459">
        <ele>260.17</ele>
        <time>2011-09-15T13:27:47Z</time>
      </trkpt>
      <trkpt lat="48.90637" lon="7.03479">
        <ele>259.69</ele>
        <time>2011-09-15T13:28:04Z</time>
      </trkpt>
      <trkpt lat="48.9067" lon="7.03502">
        <ele>259.69</ele>
        <time>2011-09-15T13:28:28Z</time>
      </trkpt>
      <trkpt lat="48.90696" lon="7.03527">
        <ele>260.17</ele>
        <time>2011-09-15T13:28:51Z</time>
      </trkpt>
      <trkpt lat="48.90724" lon="7.03557">
        <ele>259.21</ele>
        <time>2011-09-15T13:29:14Z</time>
      </trkpt>
      <trkpt lat="48.90737" lon="7.03568">
        <ele>258.73</ele>
        <time>2011-09-15T13:29:25Z</time>
      </trkpt>
      <trkpt lat="48.90749" lon="7.03588">
        <ele>258.73</ele>
        <time>2011-09-15T13:29:39Z</time>
      </trkpt>
      <trkpt lat="48.90774" lon="7.03614">
        <ele>258.25</ele>
        <time>2011-09-15T13:30:01Z</time>
      </trkpt>
      <trkpt lat="48.90804" lon="7.03636">
        <ele>258.25</ele>
        <time>2011-09-15T13:30:26Z</time>
      </trkpt>
      <trkpt lat="48.90827" lon="7.03661">
        <ele>258.25</ele>
        <time>2011-09-15T13:30:51Z</time>
      </trkpt>
      <trkpt lat="48.90846" lon="7.03685">
        <ele>258.73</ele>
        <time>2011-09-15T13:31:13Z</time>
      </trkpt>
      <trkpt lat="48.90874" lon="7.03717">
        <ele>258.73</ele>
        <time>2011-09-15T13:31:40Z</time>
      </trkpt>
      <trkpt lat="48.90887" lon="7.03721">
        <ele>258.73</ele>
        <time>2011-09-15T13:31:51Z</time>
      </trkpt>
      <trkpt lat="48.90902" lon="7.03762">
        <ele>258.73</ele>
        <time>2011-09-15T13:32:11Z</time>
      </trkpt>
      <trkpt lat="48.90925" lon="7.03806">
        <ele>258.25</ele>
        <time>2011-09-15T13:32:33Z</time>
      </trkpt>
      <trkpt lat="48.90953" lon="7.03826">
        <ele>258.73</ele>
        <time>2011-09-15T13:33:02Z</time>
      </trkpt>
      <trkpt lat="48.90984" lon="7.03847">
        <ele>258.25</ele>
        <time>2011-09-15T13:33:29Z</time>
      </trkpt>
      <trkpt lat="48.91005" lon="7.03889">
        <ele>258.25</ele>
        <time>2011-09-15T13:33:46Z</time>
      </trkpt>
      <trkpt lat="48.91023" lon="7.03928">
        <ele>258.25</ele>
        <time>2011-09-15T13:34:01Z</time>
      </trkpt>
      <trkpt lat="48.91052" lon="7.0395">
        <ele>257.29</ele>
        <time>2011-09-15T13:34:23Z</time>
      </trkpt>
      <trkpt lat="48.91072" lon="7.03966">
        <ele>256.33</ele>
        <time>2011-09-15T13:34:41Z</time>
      </trkpt>
      <trkpt lat="48.91097" lon="7.03985">
        <ele>255.37</ele>
        <time>2011-09-15T13:35:01Z</time>
      </trkpt>
      <trkpt lat="48.91123" lon="7.0399">
        <ele>254.89</ele>
        <time>2011-09-15T13:35:19Z</time>
      </trkpt>
      <trkpt lat="48.91135" lon="7.0399">
        <ele>254.89</ele>
        <time>2011-09-15T13:35:25Z</time>
      </trkpt>
      <trkpt lat="48.91156" lon="7.04002">
        <ele>254.41</ele>
        <time>2011-09-15T13:35:44Z</time>
      </trkpt>
      <trkpt lat="48.91179" lon="7.04017">
        <ele>254.41</ele>
        <time>2011-09-15T13:36:03Z</time>
      </trkpt>
      <trkpt lat="48.91205" lon="7.04021">
        <ele>254.89</ele>
        <time>2011-09-15T13:36:20Z</time>
      </trkpt>
      <trkpt lat="48.9123" lon="7.04025">
        <ele>254.89</ele>
        <time>2011-09-15T13:36:36Z</time>
      </trkpt>
      <trkpt lat="48.91272" lon="7.04033">
        <ele>254.41</ele>
        <time>2011-09-15T13:37:03Z</time>
      </trkpt>
      <trkpt lat="48.91296" lon="7.04034">
        <ele>255.37</ele>
        <time>2011-09-15T13:37:20Z</time>
      </trkpt>
      <trkpt lat="48.91322" lon="7.04037">
        <ele>255.37</ele>
        <time>2011-09-15T13:37:39Z</time>
      </trkpt>
      <trkpt lat="48.9135" lon="7.04037">
        <ele>255.37</ele>
        <time>2011-09-15T13:37:57Z</time>
      </trkpt>
      <trkpt lat="48.91375" lon="7.0406">
        <ele>255.85</ele>
        <time>2011-09-15T13:38:20Z</time>
      </trkpt>
      <trkpt lat="48.91407" lon="7.04076">
        <ele>255.37</ele>
        <time>2011-09-15T13:38:43Z</time>
      </trkpt>
      <trkpt lat="48.91433" lon="7.04097">
        <ele>256.33</ele>
        <time>2011-09-15T13:39:02Z</time>
      </trkpt>
      <trkpt lat="48.91466" lon="7.04118">
        <ele>256.81</ele>
        <time>2011-09-15T13:39:24Z</time>
      </trkpt>
      <trkpt lat="48.91488" lon="7.04136">
        <ele>256.81</ele>
        <time>2011-09-15T13:39:45Z</time>
      </trkpt>
      <trkpt lat="48.91506" lon="7.04147">
        <ele>256.81</ele>
        <time>2011-09-15T13:40:04Z</time>
      </trkpt>
      <trkpt lat="48.91526" lon="7.04159">
        <ele>256.81</ele>
        <time>2011-09-15T13:40:22Z</time>
      </trkpt>
      <trkpt lat="48.91556" lon="7.04188">
        <ele>256.33</ele>
        <time>2011-09-15T13:40:46Z</time>
      </trkpt>
      <trkpt lat="48.9157" lon="7.04218">
        <ele>256.33</ele>
        <time>2011-09-15T13:41:06Z</time>
      </trkpt>
      <trkpt lat="48.91586" lon="7.04246">
        <ele>255.85</ele>
        <time>2011-09-15T13:41:31Z</time>
      </trkpt>
      <trkpt lat="48.91607" lon="7.04295">
        <ele>256.33</ele>
        <time>2011-09-15T13:41:45Z</time>
      </trkpt>
      <trkpt lat="48.91615" lon="7.04308">
        <ele>255.85</ele>
        <time>2011-09-15T13:42:17Z</time>
      </trkpt>
      <trkpt lat="48.9165" lon="7.04323">
        <ele>255.85</ele>
        <time>2011-09-15T13:42:47Z</time>
      </trkpt>
      <trkpt lat="48.91677" lon="7.0432">
        <ele>254.89</ele>
        <time>2011-09-15T13:43:13Z</time>
      </trkpt>
      <trkpt lat="48.91698" lon="7.04327">
        <ele>253.93</ele>
        <time>2011-09-15T13:43:30Z</time>
      </trkpt>
      <trkpt lat="48.91728" lon="7.04328">
        <ele>254.41</ele>
        <time>2011-09-15T13:43:57Z</time>
      </trkpt>
      <trkpt lat="48.91751" lon="7.04327">
        <ele>254.41</ele>
        <time>2011-09-15T13:44:25Z</time>
      </trkpt>
      <trkpt lat="48.91772" lon="7.04337">
        <ele>253.93</ele>
        <time>2011-09-15T13:44:41Z</time>
      </trkpt>
      <trkpt lat="48.91801" lon="7.04358">
        <ele>253.44</ele>
        <time>2011-09-15T13:45:03Z</time>
      </trkpt>
      <trkpt lat="48.91827" lon="7.04377">
        <ele>252.48</ele>
        <time>2011-09-15T13:45:26Z</time>
      </trkpt>
      <trkpt lat="48.91852" lon="7.04394">
        <ele>252.96</ele>
        <time>2011-09-15T13:45:44Z</time>
      </trkpt>
      <trkpt lat="48.91875" lon="7.04413">
        <ele>253.44</ele>
        <time>2011-09-15T13:46:06Z</time>
      </trkpt>
      <trkpt lat="48.91894" lon="7.04431">
        <ele>253.93</ele>
        <time>2011-09-15T13:46:21Z</time>
      </trkpt>
      <trkpt lat="48.91921" lon="7.04453">
        <ele>254.41</ele>
        <time>2011-09-15T13:46:44Z</time>
      </trkpt>
      <trkpt lat="48.9194" lon="7.04461">
        <ele>254.41</ele>
        <time>2011-09-15T13:47:04Z</time>
      </trkpt>
      <trkpt lat="48.91943" lon="7.0446">
        <ele>254.89</ele>
        <time>2011-09-15T13:47:20Z</time>
      </trkpt>
      <trkpt lat="48.91967" lon="7.04472">
        <ele>254.89</ele>
        <time>2011-09-15T13:48:56Z</time>
      </trkpt>
      <trkpt lat="48.91979" lon="7.04473">
        <ele>255.37</ele>
        <time>2011-09-15T13:49:11Z</time>
      </trkpt>
      <trkpt lat="48.92009" lon="7.04486">
        <ele>255.37</ele>
        <time>2011-09-15T13:49:35Z</time>
      </trkpt>
      <trkpt lat="48.9204" lon="7.04504">
        <ele>254.41</ele>
        <time>2011-09-15T13:50:04Z</time>
      </trkpt>
      <trkpt lat="48.92069" lon="7.04514">
        <ele>254.41</ele>
        <time>2011-09-15T13:50:23Z</time>
      </trkpt>
      <trkpt lat="48.92095" lon="7.04526">
        <ele>253.93</ele>
        <time>2011-09-15T13:50:46Z</time>
      </trkpt>
      <trkpt lat="48.92112" lon="7.04539">
        <ele>254.41</ele>
        <time>2011-09-15T13:51:02Z</time>
      </trkpt>
      <trkpt lat="48.9213" lon="7.04543">
        <ele>254.41</ele>
        <time>2011-09-15T13:51:13Z</time>
      </trkpt>
      <trkpt lat="48.9215" lon="7.04551">
        <ele>254.41</ele>
        <time>2011-09-15T13:51:24Z</time>
      </trkpt>
      <trkpt lat="48.92158" lon="7.04558">
        <ele>254.41</ele>
        <time>2011-09-15T13:51:32Z</time>
      </trkpt>
      <trkpt lat="48.92175" lon="7.04563">
        <ele>254.89</ele>
        <time>2011-09-15T13:51:46Z</time>
      </trkpt>
      <trkpt lat="48.92206" lon="7.04577">
        <ele>254.89</ele>
        <time>2011-09-15T13:52:07Z</time>
      </trkpt>
      <trkpt lat="48.92208" lon="7.0458">
        <ele>254.41</ele>
        <time>2011-09-15T13:52:11Z</time>
      </trkpt>
      <trkpt lat="48.92214" lon="7.04587">
        <ele>254.89</ele>
        <time>2011-09-15T13:52:19Z</time>
      </trkpt>
      <trkpt lat="48.9222" lon="7.0459">
        <ele>255.37</ele>
        <time>2011-09-15T13:52:24Z</time>
      </trkpt>
      <trkpt lat="48.92239" lon="7.04595">
        <ele>255.37</ele>
        <time>2011-09-15T13:52:38Z</time>
      </trkpt>
      <trkpt lat="48.92248" lon="7.04607">
        <ele>255.85</ele>
        <time>2011-09-15T13:52:47Z</time>
      </trkpt>
      <trkpt lat="48.92267" lon="7.0461">
        <ele>255.37</ele>
        <time>2011-09-15T13:52:59Z</time>
      </trkpt>
      <trkpt lat="48.92277" lon="7.04615">
        <ele>255.37</ele>
        <time>2011-09-15T13:53:07Z</time>
      </trkpt>
      <trkpt lat="48.92287" lon="7.04617">
        <ele>255.37</ele>
        <time>2011-09-15T13:53:13Z</time>
      </trkpt>
      <trkpt lat="48.92314" lon="7.04636">
        <ele>254.41</ele>
        <time>2011-09-15T13:53:36Z</time>
      </trkpt>
      <trkpt lat="48.92349" lon="7.04649">
        <ele>253.44</ele>
        <time>2011-09-15T13:54:05Z</time>
      </trkpt>
      <trkpt lat="48.92377" lon="7.04657">
        <ele>252.48</ele>
        <time>2011-09-15T13:54:29Z</time>
      </trkpt>
      <trkpt lat="48.92405" lon="7.04652">
        <ele>251.52</ele>
        <time>2011-09-15T13:54:50Z</time>
      </trkpt>
      <trkpt lat="48.92434" lon="7.0464">
        <ele>251.04</ele>
        <time>2011-09-15T13:55:13Z</time>
      </trkpt>
      <trkpt lat="48.92462" lon="7.04621">
        <ele>250.56</ele>
        <time>2011-09-15T13:55:38Z</time>
      </trkpt>
      <trkpt lat="48.92491" lon="7.04595">
        <ele>249.6</ele>
        <time>2011-09-15T13:56:03Z</time>
      </trkpt>
      <trkpt lat="48.9253" lon="7.0456">
        <ele>246.72</ele>
        <time>2011-09-15T13:56:37Z</time>
      </trkpt>
      <trkpt lat="48.92564" lon="7.04535">
        <ele>245.27</ele>
        <time>2011-09-15T13:57:05Z</time>
      </trkpt>
      <trkpt lat="48.92588" lon="7.04516">
        <ele>243.83</ele>
        <time>2011-09-15T13:57:26Z</time>
      </trkpt>
      <trkpt lat="48.92619" lon="7.04494">
        <ele>243.35</ele>
        <time>2011-09-15T13:57:54Z</time>
      </trkpt>
      <trkpt lat="48.92648" lon="7.0447">
        <ele>242.87</ele>
        <time>2011-09-15T13:58:21Z</time>
      </trkpt>
      <trkpt lat="48.92669" lon="7.04446">
        <ele>242.39</ele>
        <time>2011-09-15T13:58:41Z</time>
      </trkpt>
      <trkpt lat="48.92677" lon="7.04436">
        <ele>241.91</ele>
        <time>2011-09-15T13:58:49Z</time>
      </trkpt>
      <trkpt lat="48.92697" lon="7.04417">
        <ele>241.43</ele>
        <time>2011-09-15T13:59:07Z</time>
      </trkpt>
      <trkpt lat="48.92728" lon="7.0439">
        <ele>240.95</ele>
        <time>2011-09-15T13:59:34Z</time>
      </trkpt>
      <trkpt lat="48.92752" lon="7.04369">
        <ele>240.47</ele>
        <time>2011-09-15T13:59:55Z</time>
      </trkpt>
      <trkpt lat="48.92771" lon="7.04354">
        <ele>239.99</ele>
        <time>2011-09-15T14:00:10Z</time>
      </trkpt>
      <trkpt lat="48.92795" lon="7.04321">
        <ele>238.54</ele>
        <time>2011-09-15T14:00:35Z</time>
      </trkpt>
      <trkpt lat="48.92809" lon="7.04291">
        <ele>238.06</ele>
        <time>2011-09-15T14:00:54Z</time>
      </trkpt>
      <trkpt lat="48.92811" lon="7.04283">
        <ele>236.62</ele>
        <time>2011-09-15T14:00:59Z</time>
      </trkpt>
      <trkpt lat="48.92827" lon="7.04259">
        <ele>235.66</ele>
        <time>2011-09-15T14:01:18Z</time>
      </trkpt>
      <trkpt lat="48.92828" lon="7.04251">
        <ele>234.7</ele>
        <time>2011-09-15T14:01:23Z</time>
      </trkpt>
      <trkpt lat="48.92831" lon="7.04245">
        <ele>234.7</ele>
        <time>2011-09-15T14:01:27Z</time>
      </trkpt>
      <trkpt lat="48.92843" lon="7.04216">
        <ele>233.26</ele>
        <time>2011-09-15T14:01:44Z</time>
      </trkpt>
      <trkpt lat="48.92855" lon="7.04187">
        <ele>232.3</ele>
        <time>2011-09-15T14:02:01Z</time>
      </trkpt>
      <trkpt lat="48.92871" lon="7.04163">
        <ele>229.89</ele>
        <time>2011-09-15T14:02:19Z</time>
      </trkpt>
      <trkpt lat="48.92896" lon="7.04132">
        <ele>228.93</ele>
        <time>2011-09-15T14:02:43Z</time>
      </trkpt>
      <trkpt lat="48.92918" lon="7.04105">
        <ele>227.97</ele>
        <time>2011-09-15T14:03:04Z</time>
      </trkpt>
      <trkpt lat="48.92932" lon="7.04079">
        <ele>227.97</ele>
        <time>2011-09-15T14:03:27Z</time>
      </trkpt>
      <trkpt lat="48.9294" lon="7.04062">
        <ele>227.49</ele>
        <time>2011-09-15T14:04:14Z</time>
      </trkpt>
      <trkpt lat="48.92945" lon="7.0405">
        <ele>227.49</ele>
        <time>2011-09-15T14:04:25Z</time>
      </trkpt>
      <trkpt lat="48.9295" lon="7.04011">
        <ele>227.97</ele>
        <time>2011-09-15T14:04:49Z</time>
      </trkpt>
      <trkpt lat="48.92955" lon="7.0397">
        <ele>227.49</ele>
        <time>2011-09-15T14:05:12Z</time>
      </trkpt>
      <trkpt lat="48.92957" lon="7.03934">
        <ele>228.45</ele>
        <time>2011-09-15T14:05:33Z</time>
      </trkpt>
      <trkpt lat="48.92958" lon="7.03927">
        <ele>228.45</ele>
        <time>2011-09-15T14:05:37Z</time>
      </trkpt>
      <trkpt lat="48.92971" lon="7.039">
        <ele>229.89</ele>
        <time>2011-09-15T14:05:54Z</time>
      </trkpt>
      <trkpt lat="48.9299" lon="7.03899">
        <ele>229.41</ele>
        <time>2011-09-15T14:06:11Z</time>
      </trkpt>
      <trkpt lat="48.92991" lon="7.03898">
        <ele>228.93</ele>
        <time>2011-09-15T14:06:13Z</time>
      </trkpt>
      <trkpt lat="48.93004" lon="7.03901">
        <ele>228.93</ele>
        <time>2011-09-15T14:06:27Z</time>
      </trkpt>
      <trkpt lat="48.9302" lon="7.03902">
        <ele>228.45</ele>
        <time>2011-09-15T14:06:44Z</time>
      </trkpt>
      <trkpt lat="48.93041" lon="7.03915">
        <ele>227.97</ele>
        <time>2011-09-15T14:07:01Z</time>
      </trkpt>
      <trkpt lat="48.93046" lon="7.03917">
        <ele>227.97</ele>
        <time>2011-09-15T14:07:05Z</time>
      </trkpt>
      <trkpt lat="48.93062" lon="7.03922">
        <ele>227.49</ele>
        <time>2011-09-15T14:07:19Z</time>
      </trkpt>
      <trkpt lat="48.93066" lon="7.03922">
        <ele>227.01</ele>
        <time>2011-09-15T14:07:22Z</time>
      </trkpt>
      <trkpt lat="48.93082" lon="7.03925">
        <ele>227.01</ele>
        <time>2011-09-15T14:07:35Z</time>
      </trkpt>
      <trkpt lat="48.93108" lon="7.03934">
        <ele>226.05</ele>
        <time>2011-09-15T14:07:55Z</time>
      </trkpt>
      <trkpt lat="48.93133" lon="7.03941">
        <ele>225.57</ele>
        <time>2011-09-15T14:08:12Z</time>
      </trkpt>
      <trkpt lat="48.93145" lon="7.03945">
        <ele>225.09</ele>
        <time>2011-09-15T14:08:21Z</time>
      </trkpt>
      <trkpt lat="48.93159" lon="7.03951">
        <ele>225.09</ele>
        <time>2011-09-15T14:08:36Z</time>
      </trkpt>
      <trkpt lat="48.93169" lon="7.03956">
        <ele>224.61</ele>
        <time>2011-09-15T14:08:45Z</time>
      </trkpt>
      <trkpt lat="48.9319" lon="7.03965">
        <ele>224.12</ele>
        <time>2011-09-15T14:09:01Z</time>
      </trkpt>
      <trkpt lat="48.93212" lon="7.0397">
        <ele>224.12</ele>
        <time>2011-09-15T14:09:17Z</time>
      </trkpt>
      <trkpt lat="48.93219" lon="7.03975">
        <ele>224.12</ele>
        <time>2011-09-15T14:09:22Z</time>
      </trkpt>
      <trkpt lat="48.93227" lon="7.03978">
        <ele>224.12</ele>
        <time>2011-09-15T14:09:29Z</time>
      </trkpt>
      <trkpt lat="48.93249" lon="7.03985">
        <ele>224.12</ele>
        <time>2011-09-15T14:09:48Z</time>
      </trkpt>
      <trkpt lat="48.93265" lon="7.03989">
        <ele>224.61</ele>
        <time>2011-09-15T14:10:01Z</time>
      </trkpt>
      <trkpt lat="48.93283" lon="7.03997">
        <ele>224.12</ele>
        <time>2011-09-15T14:10:16Z</time>
      </trkpt>
      <trkpt lat="48.93302" lon="7.03999">
        <ele>223.64</ele>
        <time>2011-09-15T14:10:36Z</time>
      </trkpt>
      <trkpt lat="48.93321" lon="7.04013">
        <ele>223.16</ele>
        <time>2011-09-15T14:11:01Z</time>
      </trkpt>
      <trkpt lat="48.93328" lon="7.04004">
        <ele>223.16</ele>
        <time>2011-09-15T14:11:08Z</time>
      </trkpt>
      <trkpt lat="48.93329" lon="7.04006">
        <ele>223.16</ele>
        <time>2011-09-15T14:11:10Z</time>
      </trkpt>
      <trkpt lat="48.93334" lon="7.04006">
        <ele>223.16</ele>
        <time>2011-09-15T14:11:14Z</time>
      </trkpt>
      <trkpt lat="48.93345" lon="7.04">
        <ele>223.16</ele>
        <time>2011-09-15T14:11:28Z</time>
      </trkpt>
      <trkpt lat="48.93373" lon="7.03998">
        <ele>222.68</ele>
        <time>2011-09-15T14:11:49Z</time>
      </trkpt>
      <trkpt lat="48.93394" lon="7.03996">
        <ele>223.16</ele>
        <time>2011-09-15T14:12:09Z</time>
      </trkpt>
      <trkpt lat="48.93401" lon="7.03989">
        <ele>223.64</ele>
        <time>2011-09-15T14:12:22Z</time>
      </trkpt>
      <trkpt lat="48.93413" lon="7.03981">
        <ele>222.68</ele>
        <time>2011-09-15T14:12:31Z</time>
      </trkpt>
      <trkpt lat="48.93415" lon="7.03979">
        <ele>224.12</ele>
        <time>2011-09-15T14:12:59Z</time>
      </trkpt>
      <trkpt lat="48.93417" lon="7.03963">
        <ele>223.16</ele>
        <time>2011-09-15T14:13:30Z</time>
      </trkpt>
      <trkpt lat="48.93419" lon="7.03941">
        <ele>222.2</ele>
        <time>2011-09-15T14:13:45Z</time>
      </trkpt>
      <trkpt lat="48.93416" lon="7.0392">
        <ele>222.68</ele>
        <time>2011-09-15T14:13:55Z</time>
      </trkpt>
      <trkpt lat="48.93417" lon="7.03914">
        <ele>222.68</ele>
        <time>2011-09-15T14:13:59Z</time>
      </trkpt>
      <trkpt lat="48.93415" lon="7.039">
        <ele>222.68</ele>
        <time>2011-09-15T14:14:06Z</time>
      </trkpt>
      <trkpt lat="48.93418" lon="7.03872">
        <ele>222.68</ele>
        <time>2011-09-15T14:14:23Z</time>
      </trkpt>
      <trkpt lat="48.9342" lon="7.03867">
        <ele>222.68</ele>
        <time>2011-09-15T14:14:26Z</time>
      </trkpt>
      <trkpt lat="48.93422" lon="7.03848">
        <ele>222.2</ele>
        <time>2011-09-15T14:14:38Z</time>
      </trkpt>
      <trkpt lat="48.93433" lon="7.0384">
        <ele>222.2</ele>
        <time>2011-09-15T14:14:48Z</time>
      </trkpt>
      <trkpt lat="48.93447" lon="7.03829">
        <ele>222.2</ele>
        <time>2011-09-15T14:14:59Z</time>
      </trkpt>
      <trkpt lat="48.93452" lon="7.03826">
        <ele>221.72</ele>
        <time>2011-09-15T14:15:02Z</time>
      </trkpt>
      <trkpt lat="48.93463" lon="7.03826">
        <ele>221.72</ele>
        <time>2011-09-15T14:15:13Z</time>
      </trkpt>
      <trkpt lat="48.93483" lon="7.03821">
        <ele>221.24</ele>
        <time>2011-09-15T14:15:27Z</time>
      </trkpt>
      <trkpt lat="48.9352" lon="7.03816">
        <ele>220.28</ele>
        <time>2011-09-15T14:15:52Z</time>
      </trkpt>
      <trkpt lat="48.93548" lon="7.03815">
        <ele>220.28</ele>
        <time>2011-09-15T14:16:12Z</time>
      </trkpt>
      <trkpt lat="48.93566" lon="7.03818">
        <ele>220.28</ele>
        <time>2011-09-15T14:16:27Z</time>
      </trkpt>
      <trkpt lat="48.93591" lon="7.03832">
        <ele>220.28</ele>
        <time>2011-09-15T14:16:46Z</time>
      </trkpt>
      <trkpt lat="48.93617" lon="7.03847">
        <ele>220.76</ele>
        <time>2011-09-15T14:17:08Z</time>
      </trkpt>
      <trkpt lat="48.93635" lon="7.03829">
        <ele>220.76</ele>
        <time>2011-09-15T14:17:26Z</time>
      </trkpt>
      <trkpt lat="48.93654" lon="7.03804">
        <ele>220.76</ele>
        <time>2011-09-15T14:17:45Z</time>
      </trkpt>
      <trkpt lat="48.93673" lon="7.03798">
        <ele>221.24</ele>
        <time>2011-09-15T14:18:01Z</time>
      </trkpt>
      <trkpt lat="48.93679" lon="7.03797">
        <ele>221.24</ele>
        <time>2011-09-15T14:18:13Z</time>
      </trkpt>
      <trkpt lat="48.93682" lon="7.03797">
        <ele>221.24</ele>
        <time>2011-09-15T14:18:16Z</time>
      </trkpt>
      <trkpt lat="48.93709" lon="7.03798">
        <ele>222.2</ele>
        <time>2011-09-15T14:18:37Z</time>
      </trkpt>
      <trkpt lat="48.93736" lon="7.038">
        <ele>223.16</ele>
        <time>2011-09-15T14:18:57Z</time>
      </trkpt>
      <trkpt lat="48.93765" lon="7.03812">
        <ele>225.09</ele>
        <time>2011-09-15T14:19:18Z</time>
      </trkpt>
      <trkpt lat="48.93793" lon="7.03832">
        <ele>226.05</ele>
        <time>2011-09-15T14:19:43Z</time>
      </trkpt>
      <trkpt lat="48.93818" lon="7.03876">
        <ele>225.57</ele>
        <time>2011-09-15T14:20:13Z</time>
      </trkpt>
      <trkpt lat="48.93836" lon="7.03905">
        <ele>225.09</ele>
        <time>2011-09-15T14:20:34Z</time>
      </trkpt>
      <trkpt lat="48.93855" lon="7.03934">
        <ele>225.09</ele>
        <time>2011-09-15T14:20:55Z</time>
      </trkpt>
      <trkpt lat="48.93868" lon="7.03947">
        <ele>225.57</ele>
        <time>2011-09-15T14:21:12Z</time>
      </trkpt>
      <trkpt lat="48.93874" lon="7.03947">
        <ele>225.09</ele>
        <time>2011-09-15T14:21:25Z</time>
      </trkpt>
      <trkpt lat="48.93892" lon="7.03934">
        <ele>225.57</ele>
        <time>2011-09-15T14:21:45Z</time>
      </trkpt>
      <trkpt lat="48.93902" lon="7.03924">
        <ele>226.05</ele>
        <time>2011-09-15T14:22:03Z</time>
      </trkpt>
      <trkpt lat="48.9391" lon="7.03915">
        <ele>226.05</ele>
        <time>2011-09-15T14:22:15Z</time>
      </trkpt>
      <trkpt lat="48.93921" lon="7.03882">
        <ele>227.01</ele>
        <time>2011-09-15T14:22:34Z</time>
      </trkpt>
      <trkpt lat="48.93926" lon="7.03858">
        <ele>227.97</ele>
        <time>2011-09-15T14:22:51Z</time>
      </trkpt>
      <trkpt lat="48.93926" lon="7.03855">
        <ele>227.97</ele>
        <time>2011-09-15T14:23:19Z</time>
      </trkpt>
      <trkpt lat="48.93931" lon="7.03838">
        <ele>227.97</ele>
        <time>2011-09-15T14:24:36Z</time>
      </trkpt>
      <trkpt lat="48.93935" lon="7.03832">
        <ele>227.97</ele>
        <time>2011-09-15T14:24:57Z</time>
      </trkpt>
      <trkpt lat="48.93937" lon="7.03816">
        <ele>227.49</ele>
        <time>2011-09-15T14:25:08Z</time>
      </trkpt>
      <trkpt lat="48.93947" lon="7.03782">
        <ele>226.53</ele>
        <time>2011-09-15T14:25:27Z</time>
      </trkpt>
      <trkpt lat="48.93948" lon="7.0377">
        <ele>226.53</ele>
        <time>2011-09-15T14:25:33Z</time>
      </trkpt>
      <trkpt lat="48.93949" lon="7.03759">
        <ele>226.05</ele>
        <time>2011-09-15T14:25:38Z</time>
      </trkpt>
      <trkpt lat="48.93953" lon="7.03742">
        <ele>226.53</ele>
        <time>2011-09-15T14:25:46Z</time>
      </trkpt>
      <trkpt lat="48.93957" lon="7.03732">
        <ele>227.01</ele>
        <time>2011-09-15T14:25:52Z</time>
      </trkpt>
      <trkpt lat="48.93962" lon="7.03724">
        <ele>227.01</ele>
        <time>2011-09-15T14:25:57Z</time>
      </trkpt>
      <trkpt lat="48.93963" lon="7.03708">
        <ele>227.49</ele>
        <time>2011-09-15T14:26:06Z</time>
      </trkpt>
      <trkpt lat="48.93967" lon="7.03691">
        <ele>227.01</ele>
        <time>2011-09-15T14:26:16Z</time>
      </trkpt>
      <trkpt lat="48.93963" lon="7.03669">
        <ele>226.53</ele>
        <time>2011-09-15T14:26:27Z</time>
      </trkpt>
      <trkpt lat="48.93965" lon="7.03662">
        <ele>227.01</ele>
        <time>2011-09-15T14:26:31Z</time>
      </trkpt>
      <trkpt lat="48.93965" lon="7.03651">
        <ele>227.01</ele>
        <time>2011-09-15T14:26:37Z</time>
      </trkpt>
      <trkpt lat="48.93962" lon="7.03604">
        <ele>226.53</ele>
        <time>2011-09-15T14:26:59Z</time>
      </trkpt>
      <trkpt lat="48.93966" lon="7.03552">
        <ele>225.57</ele>
        <time>2011-09-15T14:27:23Z</time>
      </trkpt>
      <trkpt lat="48.93966" lon="7.03548">
        <ele>226.05</ele>
        <time>2011-09-15T14:27:25Z</time>
      </trkpt>
      <trkpt lat="48.93965" lon="7.03538">
        <ele>225.57</ele>
        <time>2011-09-15T14:27:30Z</time>
      </trkpt>
      <trkpt lat="48.93965" lon="7.0353">
        <ele>225.09</ele>
        <time>2011-09-15T14:27:34Z</time>
      </trkpt>
      <trkpt lat="48.93962" lon="7.03513">
        <ele>224.61</ele>
        <time>2011-09-15T14:27:44Z</time>
      </trkpt>
      <trkpt lat="48.93964" lon="7.03493">
        <ele>224.12</ele>
        <time>2011-09-15T14:28:38Z</time>
      </trkpt>
      <trkpt lat="48.93961" lon="7.03487">
        <ele>223.64</ele>
        <time>2011-09-15T14:28:42Z</time>
      </trkpt>
      <trkpt lat="48.93962" lon="7.03484">
        <ele>224.12</ele>
        <time>2011-09-15T14:28:44Z</time>
      </trkpt>
      <trkpt lat="48.93962" lon="7.03481">
        <ele>223.64</ele>
        <time>2011-09-15T14:28:46Z</time>
      </trkpt>
      <trkpt lat="48.93959" lon="7.03469">
        <ele>223.64</ele>
        <time>2011-09-15T14:28:51Z</time>
      </trkpt>
      <trkpt lat="48.93959" lon="7.03464">
        <ele>223.64</ele>
        <time>2011-09-15T14:28:54Z</time>
      </trkpt>
      <trkpt lat="48.93959" lon="7.03449">
        <ele>223.16</ele>
        <time>2011-09-15T14:29:03Z</time>
      </trkpt>
      <trkpt lat="48.9396" lon="7.03443">
        <ele>222.68</ele>
        <time>2011-09-15T14:29:06Z</time>
      </trkpt>
      <trkpt lat="48.93962" lon="7.03436">
        <ele>222.2</ele>
        <time>2011-09-15T14:29:10Z</time>
      </trkpt>
      <trkpt lat="48.93973" lon="7.03416">
        <ele>221.24</ele>
        <time>2011-09-15T14:29:25Z</time>
      </trkpt>
      <trkpt lat="48.93972" lon="7.03413">
        <ele>221.24</ele>
        <time>2011-09-15T14:29:27Z</time>
      </trkpt>
      <trkpt lat="48.93973" lon="7.0341">
        <ele>221.24</ele>
        <time>2011-09-15T14:29:29Z</time>
      </trkpt>
      <trkpt lat="48.93974" lon="7.03407">
        <ele>220.76</ele>
        <time>2011-09-15T14:29:31Z</time>
      </trkpt>
      <trkpt lat="48.9398" lon="7.0339">
        <ele>220.28</ele>
        <time>2011-09-15T14:29:40Z</time>
      </trkpt>
      <trkpt lat="48.93982" lon="7.03382">
        <ele>219.8</ele>
        <time>2011-09-15T14:29:44Z</time>
      </trkpt>
      <trkpt lat="48.93988" lon="7.03362">
        <ele>218.36</ele>
        <time>2011-09-15T14:29:57Z</time>
      </trkpt>
      <trkpt lat="48.93998" lon="7.03341">
        <ele>217.4</ele>
        <time>2011-09-15T14:30:12Z</time>
      </trkpt>
      <trkpt lat="48.94004" lon="7.03335">
        <ele>216.91</ele>
        <time>2011-09-15T14:30:19Z</time>
      </trkpt>
      <trkpt lat="48.9402" lon="7.03318">
        <ele>216.43</ele>
        <time>2011-09-15T14:30:35Z</time>
      </trkpt>
      <trkpt lat="48.94024" lon="7.0331">
        <ele>215.95</ele>
        <time>2011-09-15T14:30:44Z</time>
      </trkpt>
      <trkpt lat="48.94035" lon="7.03297">
        <ele>216.43</ele>
        <time>2011-09-15T14:30:59Z</time>
      </trkpt>
      <trkpt lat="48.94048" lon="7.03285">
        <ele>216.43</ele>
        <time>2011-09-15T14:31:12Z</time>
      </trkpt>
      <trkpt lat="48.94061" lon="7.0327">
        <ele>216.91</ele>
        <time>2011-09-15T14:31:27Z</time>
      </trkpt>
      <trkpt lat="48.94073" lon="7.03259">
        <ele>216.43</ele>
        <time>2011-09-15T14:31:39Z</time>
      </trkpt>
      <trkpt lat="48.94084" lon="7.03246">
        <ele>216.43</ele>
        <time>2011-09-15T14:31:50Z</time>
      </trkpt>
      <trkpt lat="48.94102" lon="7.0323">
        <ele>215.95</ele>
        <time>2011-09-15T14:32:06Z</time>
      </trkpt>
      <trkpt lat="48.9412" lon="7.03216">
        <ele>215.47</ele>
        <time>2011-09-15T14:32:21Z</time>
      </trkpt>
      <trkpt lat="48.94136" lon="7.03198">
        <ele>215.95</ele>
        <time>2011-09-15T14:32:37Z</time>
      </trkpt>
      <trkpt lat="48.94153" lon="7.03183">
        <ele>215.47</ele>
        <time>2011-09-15T14:32:51Z</time>
      </trkpt>
      <trkpt lat="48.94167" lon="7.0317">
        <ele>215.47</ele>
        <time>2011-09-15T14:33:05Z</time>
      </trkpt>
      <trkpt lat="48.94166" lon="7.03164">
        <ele>215.95</ele>
        <time>2011-09-15T14:33:10Z</time>
      </trkpt>
      <trkpt lat="48.94163" lon="7.03127">
        <ele>215.47</ele>
        <time>2011-09-15T14:33:29Z</time>
      </trkpt>
      <trkpt lat="48.94163" lon="7.03089">
        <ele>214.99</ele>
        <time>2011-09-15T14:33:49Z</time>
      </trkpt>
      <trkpt lat="48.94164" lon="7.03051">
        <ele>214.99</ele>
        <time>2011-09-15T14:34:11Z</time>
      </trkpt>
      <trkpt lat="48.94161" lon="7.0302">
        <ele>214.99</ele>
        <time>2011-09-15T14:34:32Z</time>
      </trkpt>
      <trkpt lat="48.94142" lon="7.02986">
        <ele>215.47</ele>
        <time>2011-09-15T14:34:54Z</time>
      </trkpt>
      <trkpt lat="48.94114" lon="7.02978">
        <ele>215.47</ele>
        <time>2011-09-15T14:35:19Z</time>
      </trkpt>
      <trkpt lat="48.94098" lon="7.02983">
        <ele>215.47</ele>
        <time>2011-09-15T14:35:32Z</time>
      </trkpt>
      <trkpt lat="48.94093" lon="7.02979">
        <ele>215.47</ele>
        <time>2011-09-15T14:35:36Z</time>
      </trkpt>
      <trkpt lat="48.94083" lon="7.02939">
        <ele>214.99</ele>
        <time>2011-09-15T14:35:59Z</time>
      </trkpt>
      <trkpt lat="48.94075" lon="7.02909">
        <ele>214.99</ele>
        <time>2011-09-15T14:36:15Z</time>
      </trkpt>
      <trkpt lat="48.94068" lon="7.02884">
        <ele>214.99</ele>
        <time>2011-09-15T14:36:31Z</time>
      </trkpt>
      <trkpt lat="48.9406" lon="7.02879">
        <ele>214.51</ele>
        <time>2011-09-15T14:36:42Z</time>
      </trkpt>
      <trkpt lat="48.9406" lon="7.02879">
        <ele>214.99</ele>
        <time>2011-09-15T14:37:56Z</time>
      </trkpt>
      <trkpt lat="48.9406" lon="7.02884">
        <ele>214.99</ele>
        <time>2011-09-15T14:40:37Z</time>
      </trkpt>
    </trkseg>
  </trk>
</gpx>